<?xml version="1.0" encoding="UTF-8" standalone="no" ?>
<gpx xmlns="http://www.topografix.com/GPX/1/1" xmlns:xsi="http://www.w3.org/2001/XMLSchema-instance" xsi:schemaLocation="http://www.topografix.com/GPX/1/1 http://www.topografix.com/GPX/1/1/gpx.xsd" version="1.1" creator="VisuGPX - https://www.visugpx.com">
  <metadata>
    <name>Domicile travail domicile</name>
    <desc><![CDATA[le 02/08/2013]]></desc>
  </metadata>
  <wpt lat="48.72383" lon="2.09899">
    <ele>159.2</ele>
    <name><![CDATA[Start]]></name>
    <desc><![CDATA[2013-08-02 04:55:28]]></desc>
  </wpt>
  <wpt lat="48.76259" lon="2.08356">
    <ele>159.1</ele>
    <name><![CDATA[Lap 1]]></name>
    <desc><![CDATA[8.82km, 34:20, 15.4kph]]></desc>
  </wpt>
  <wpt lat="48.72368" lon="2.09898">
    <ele>159.8</ele>
    <name><![CDATA[Lap 2]]></name>
    <desc><![CDATA[10.22km, 40:29, 15.1kph]]></desc>
  </wpt>
  <trk>
    <name><![CDATA[2013-08-02-04-55-28]]></name>
    <desc><![CDATA[74:49 - 19.0km]]></desc>
    <trkseg>
      <trkpt lat="48.72383" lon="2.09899">
        <ele>166.673</ele>
        <time>2013-08-02T04:55:29Z</time>
      </trkpt>
      <trkpt lat="48.72383" lon="2.09899">
        <ele>166.673</ele>
        <time>2013-08-02T04:55:30Z</time>
      </trkpt>
      <trkpt lat="48.72383" lon="2.09903">
        <ele>166.892</ele>
        <time>2013-08-02T04:55:33Z</time>
      </trkpt>
      <trkpt lat="48.72382" lon="2.0991">
        <ele>166.771</ele>
        <time>2013-08-02T04:55:36Z</time>
      </trkpt>
      <trkpt lat="48.72375" lon="2.0991">
        <ele>166.964</ele>
        <time>2013-08-02T04:55:41Z</time>
      </trkpt>
      <trkpt lat="48.72369" lon="2.09908">
        <ele>167.026</ele>
        <time>2013-08-02T04:55:44Z</time>
      </trkpt>
      <trkpt lat="48.72365" lon="2.09898">
        <ele>166.865</ele>
        <time>2013-08-02T04:55:49Z</time>
      </trkpt>
      <trkpt lat="48.72363" lon="2.09897">
        <ele>166.854</ele>
        <time>2013-08-02T04:55:50Z</time>
      </trkpt>
      <trkpt lat="48.72361" lon="2.09897">
        <ele>166.858</ele>
        <time>2013-08-02T04:55:52Z</time>
      </trkpt>
      <trkpt lat="48.72361" lon="2.09897">
        <ele>166.966</ele>
        <time>2013-08-02T04:55:56Z</time>
      </trkpt>
      <trkpt lat="48.72359" lon="2.09896">
        <ele>166.927</ele>
        <time>2013-08-02T04:56:03Z</time>
      </trkpt>
      <trkpt lat="48.72359" lon="2.09892">
        <ele>166.848</ele>
        <time>2013-08-02T04:56:15Z</time>
      </trkpt>
      <trkpt lat="48.72359" lon="2.09872">
        <ele>166.878</ele>
        <time>2013-08-02T04:56:21Z</time>
      </trkpt>
      <trkpt lat="48.72364" lon="2.09846">
        <ele>166.949</ele>
        <time>2013-08-02T04:56:27Z</time>
      </trkpt>
      <trkpt lat="48.72372" lon="2.09806">
        <ele>166.724</ele>
        <time>2013-08-02T04:56:35Z</time>
      </trkpt>
      <trkpt lat="48.72379" lon="2.09762">
        <ele>166.716</ele>
        <time>2013-08-02T04:56:43Z</time>
      </trkpt>
      <trkpt lat="48.72386" lon="2.09722">
        <ele>166.43</ele>
        <time>2013-08-02T04:56:50Z</time>
      </trkpt>
      <trkpt lat="48.7239" lon="2.09673">
        <ele>165.81</ele>
        <time>2013-08-02T04:56:58Z</time>
      </trkpt>
      <trkpt lat="48.7239" lon="2.09624">
        <ele>165.548</ele>
        <time>2013-08-02T04:57:06Z</time>
      </trkpt>
      <trkpt lat="48.7239" lon="2.09569">
        <ele>165.341</ele>
        <time>2013-08-02T04:57:15Z</time>
      </trkpt>
      <trkpt lat="48.72392" lon="2.09523">
        <ele>165.422</ele>
        <time>2013-08-02T04:57:23Z</time>
      </trkpt>
      <trkpt lat="48.7239" lon="2.09461">
        <ele>165.629</ele>
        <time>2013-08-02T04:57:34Z</time>
      </trkpt>
      <trkpt lat="48.72378" lon="2.09439">
        <ele>166.02</ele>
        <time>2013-08-02T04:57:39Z</time>
      </trkpt>
      <trkpt lat="48.72356" lon="2.09417">
        <ele>166.723</ele>
        <time>2013-08-02T04:57:46Z</time>
      </trkpt>
      <trkpt lat="48.72315" lon="2.09375">
        <ele>168.158</ele>
        <time>2013-08-02T04:57:59Z</time>
      </trkpt>
      <trkpt lat="48.72287" lon="2.09345">
        <ele>168.753</ele>
        <time>2013-08-02T04:58:08Z</time>
      </trkpt>
      <trkpt lat="48.7227" lon="2.09331">
        <ele>169.197</ele>
        <time>2013-08-02T04:58:13Z</time>
      </trkpt>
      <trkpt lat="48.72225" lon="2.09287">
        <ele>170.527</ele>
        <time>2013-08-02T04:58:27Z</time>
      </trkpt>
      <trkpt lat="48.72198" lon="2.09256">
        <ele>170.712</ele>
        <time>2013-08-02T04:58:36Z</time>
      </trkpt>
      <trkpt lat="48.72165" lon="2.09223">
        <ele>170.735</ele>
        <time>2013-08-02T04:58:46Z</time>
      </trkpt>
      <trkpt lat="48.72155" lon="2.09213">
        <ele>170.623</ele>
        <time>2013-08-02T04:58:49Z</time>
      </trkpt>
      <trkpt lat="48.72157" lon="2.09192">
        <ele>170.562</ele>
        <time>2013-08-02T04:58:53Z</time>
      </trkpt>
      <trkpt lat="48.72191" lon="2.09141">
        <ele>170.406</ele>
        <time>2013-08-02T04:59:05Z</time>
      </trkpt>
      <trkpt lat="48.72224" lon="2.09098">
        <ele>170.582</ele>
        <time>2013-08-02T04:59:16Z</time>
      </trkpt>
      <trkpt lat="48.72241" lon="2.09076">
        <ele>170.389</ele>
        <time>2013-08-02T04:59:22Z</time>
      </trkpt>
      <trkpt lat="48.72265" lon="2.09048">
        <ele>170.036</ele>
        <time>2013-08-02T04:59:30Z</time>
      </trkpt>
      <trkpt lat="48.7229" lon="2.09016">
        <ele>169.842</ele>
        <time>2013-08-02T04:59:38Z</time>
      </trkpt>
      <trkpt lat="48.72307" lon="2.08991">
        <ele>170.273</ele>
        <time>2013-08-02T04:59:46Z</time>
      </trkpt>
      <trkpt lat="48.72311" lon="2.08987">
        <ele>170.457</ele>
        <time>2013-08-02T04:59:50Z</time>
      </trkpt>
      <trkpt lat="48.72309" lon="2.0899">
        <ele>170.417</ele>
        <time>2013-08-02T05:00:06Z</time>
      </trkpt>
      <trkpt lat="48.7231" lon="2.08987">
        <ele>170.344</ele>
        <time>2013-08-02T05:00:15Z</time>
      </trkpt>
      <trkpt lat="48.72312" lon="2.08973">
        <ele>170.4</ele>
        <time>2013-08-02T05:00:21Z</time>
      </trkpt>
      <trkpt lat="48.72311" lon="2.08971">
        <ele>170.413</ele>
        <time>2013-08-02T05:00:22Z</time>
      </trkpt>
      <trkpt lat="48.72308" lon="2.08963">
        <ele>170.384</ele>
        <time>2013-08-02T05:00:25Z</time>
      </trkpt>
      <trkpt lat="48.72313" lon="2.08955">
        <ele>170.442</ele>
        <time>2013-08-02T05:00:29Z</time>
      </trkpt>
      <trkpt lat="48.72324" lon="2.08954">
        <ele>170.706</ele>
        <time>2013-08-02T05:00:33Z</time>
      </trkpt>
      <trkpt lat="48.72333" lon="2.08944">
        <ele>170.766</ele>
        <time>2013-08-02T05:00:36Z</time>
      </trkpt>
      <trkpt lat="48.7235" lon="2.08913">
        <ele>170.794</ele>
        <time>2013-08-02T05:00:43Z</time>
      </trkpt>
      <trkpt lat="48.72377" lon="2.08859">
        <ele>171.052</ele>
        <time>2013-08-02T05:00:54Z</time>
      </trkpt>
      <trkpt lat="48.72396" lon="2.08807">
        <ele>171.166</ele>
        <time>2013-08-02T05:01:03Z</time>
      </trkpt>
      <trkpt lat="48.72418" lon="2.08748">
        <ele>170.93</ele>
        <time>2013-08-02T05:01:13Z</time>
      </trkpt>
      <trkpt lat="48.72441" lon="2.08693">
        <ele>171.541</ele>
        <time>2013-08-02T05:01:23Z</time>
      </trkpt>
      <trkpt lat="48.72446" lon="2.08681">
        <ele>171.666</ele>
        <time>2013-08-02T05:01:27Z</time>
      </trkpt>
      <trkpt lat="48.72452" lon="2.08666">
        <ele>171.951</ele>
        <time>2013-08-02T05:01:33Z</time>
      </trkpt>
      <trkpt lat="48.72465" lon="2.0864">
        <ele>172.16</ele>
        <time>2013-08-02T05:01:39Z</time>
      </trkpt>
      <trkpt lat="48.72489" lon="2.08585">
        <ele>172.273</ele>
        <time>2013-08-02T05:01:50Z</time>
      </trkpt>
      <trkpt lat="48.72502" lon="2.08555">
        <ele>172.557</ele>
        <time>2013-08-02T05:01:56Z</time>
      </trkpt>
      <trkpt lat="48.72505" lon="2.08544">
        <ele>172.611</ele>
        <time>2013-08-02T05:01:58Z</time>
      </trkpt>
      <trkpt lat="48.72522" lon="2.08493">
        <ele>172.845</ele>
        <time>2013-08-02T05:02:07Z</time>
      </trkpt>
      <trkpt lat="48.72546" lon="2.08439">
        <ele>172.729</ele>
        <time>2013-08-02T05:02:17Z</time>
      </trkpt>
      <trkpt lat="48.72572" lon="2.0839">
        <ele>173.033</ele>
        <time>2013-08-02T05:02:27Z</time>
      </trkpt>
      <trkpt lat="48.72602" lon="2.08339">
        <ele>173.507</ele>
        <time>2013-08-02T05:02:38Z</time>
      </trkpt>
      <trkpt lat="48.72615" lon="2.08315">
        <ele>173.575</ele>
        <time>2013-08-02T05:02:43Z</time>
      </trkpt>
      <trkpt lat="48.72629" lon="2.08302">
        <ele>173.541</ele>
        <time>2013-08-02T05:02:47Z</time>
      </trkpt>
      <trkpt lat="48.7267" lon="2.08286">
        <ele>172.68</ele>
        <time>2013-08-02T05:02:56Z</time>
      </trkpt>
      <trkpt lat="48.72705" lon="2.08274">
        <ele>172.324</ele>
        <time>2013-08-02T05:03:04Z</time>
      </trkpt>
      <trkpt lat="48.72709" lon="2.08272">
        <ele>172.271</ele>
        <time>2013-08-02T05:03:05Z</time>
      </trkpt>
      <trkpt lat="48.7272" lon="2.08254">
        <ele>172.007</ele>
        <time>2013-08-02T05:03:09Z</time>
      </trkpt>
      <trkpt lat="48.72719" lon="2.08242">
        <ele>172.032</ele>
        <time>2013-08-02T05:03:11Z</time>
      </trkpt>
      <trkpt lat="48.72718" lon="2.0821">
        <ele>172.676</ele>
        <time>2013-08-02T05:03:17Z</time>
      </trkpt>
      <trkpt lat="48.72727" lon="2.08193">
        <ele>173.043</ele>
        <time>2013-08-02T05:03:21Z</time>
      </trkpt>
      <trkpt lat="48.72755" lon="2.0818">
        <ele>172.963</ele>
        <time>2013-08-02T05:03:28Z</time>
      </trkpt>
      <trkpt lat="48.72789" lon="2.08168">
        <ele>172.791</ele>
        <time>2013-08-02T05:03:36Z</time>
      </trkpt>
      <trkpt lat="48.72807" lon="2.08163">
        <ele>172.707</ele>
        <time>2013-08-02T05:03:40Z</time>
      </trkpt>
      <trkpt lat="48.72826" lon="2.08157">
        <ele>172.678</ele>
        <time>2013-08-02T05:03:44Z</time>
      </trkpt>
      <trkpt lat="48.72844" lon="2.0815">
        <ele>172.599</ele>
        <time>2013-08-02T05:03:48Z</time>
      </trkpt>
      <trkpt lat="48.7286" lon="2.08153">
        <ele>172.52</ele>
        <time>2013-08-02T05:03:52Z</time>
      </trkpt>
      <trkpt lat="48.72874" lon="2.08158">
        <ele>172.591</ele>
        <time>2013-08-02T05:03:56Z</time>
      </trkpt>
      <trkpt lat="48.72888" lon="2.08142">
        <ele>172.565</ele>
        <time>2013-08-02T05:04:01Z</time>
      </trkpt>
      <trkpt lat="48.72892" lon="2.08141">
        <ele>172.567</ele>
        <time>2013-08-02T05:04:02Z</time>
      </trkpt>
      <trkpt lat="48.72919" lon="2.0813">
        <ele>172.088</ele>
        <time>2013-08-02T05:04:09Z</time>
      </trkpt>
      <trkpt lat="48.72946" lon="2.0812">
        <ele>171.666</ele>
        <time>2013-08-02T05:04:15Z</time>
      </trkpt>
      <trkpt lat="48.72959" lon="2.08115">
        <ele>171.421</ele>
        <time>2013-08-02T05:04:18Z</time>
      </trkpt>
      <trkpt lat="48.72976" lon="2.08121">
        <ele>171.121</ele>
        <time>2013-08-02T05:04:22Z</time>
      </trkpt>
      <trkpt lat="48.7298" lon="2.08124">
        <ele>171.005</ele>
        <time>2013-08-02T05:04:23Z</time>
      </trkpt>
      <trkpt lat="48.72988" lon="2.0813">
        <ele>170.821</ele>
        <time>2013-08-02T05:04:25Z</time>
      </trkpt>
      <trkpt lat="48.73009" lon="2.08134">
        <ele>169.964</ele>
        <time>2013-08-02T05:04:30Z</time>
      </trkpt>
      <trkpt lat="48.73019" lon="2.08122">
        <ele>169.578</ele>
        <time>2013-08-02T05:04:33Z</time>
      </trkpt>
      <trkpt lat="48.73032" lon="2.08128">
        <ele>169.066</ele>
        <time>2013-08-02T05:04:37Z</time>
      </trkpt>
      <trkpt lat="48.73051" lon="2.0814">
        <ele>168.494</ele>
        <time>2013-08-02T05:04:42Z</time>
      </trkpt>
      <trkpt lat="48.73066" lon="2.08155">
        <ele>167.898</ele>
        <time>2013-08-02T05:04:45Z</time>
      </trkpt>
      <trkpt lat="48.73074" lon="2.08165">
        <ele>167.824</ele>
        <time>2013-08-02T05:04:47Z</time>
      </trkpt>
      <trkpt lat="48.73084" lon="2.08177">
        <ele>168.309</ele>
        <time>2013-08-02T05:04:51Z</time>
      </trkpt>
      <trkpt lat="48.73099" lon="2.08186">
        <ele>168.806</ele>
        <time>2013-08-02T05:04:55Z</time>
      </trkpt>
      <trkpt lat="48.73117" lon="2.08185">
        <ele>168.849</ele>
        <time>2013-08-02T05:04:59Z</time>
      </trkpt>
      <trkpt lat="48.73126" lon="2.08172">
        <ele>168.875</ele>
        <time>2013-08-02T05:05:02Z</time>
      </trkpt>
      <trkpt lat="48.73146" lon="2.08154">
        <ele>168.102</ele>
        <time>2013-08-02T05:05:08Z</time>
      </trkpt>
      <trkpt lat="48.7315" lon="2.08157">
        <ele>167.753</ele>
        <time>2013-08-02T05:05:09Z</time>
      </trkpt>
      <trkpt lat="48.73188" lon="2.0819">
        <ele>165.148</ele>
        <time>2013-08-02T05:05:17Z</time>
      </trkpt>
      <trkpt lat="48.73219" lon="2.08217">
        <ele>162.392</ele>
        <time>2013-08-02T05:05:23Z</time>
      </trkpt>
      <trkpt lat="48.73224" lon="2.08222">
        <ele>161.76</ele>
        <time>2013-08-02T05:05:24Z</time>
      </trkpt>
      <trkpt lat="48.73241" lon="2.08233">
        <ele>159.867</ele>
        <time>2013-08-02T05:05:28Z</time>
      </trkpt>
      <trkpt lat="48.73251" lon="2.08259">
        <ele>156.961</ele>
        <time>2013-08-02T05:05:33Z</time>
      </trkpt>
      <trkpt lat="48.73257" lon="2.08274">
        <ele>155.37</ele>
        <time>2013-08-02T05:05:35Z</time>
      </trkpt>
      <trkpt lat="48.73276" lon="2.08296">
        <ele>151.118</ele>
        <time>2013-08-02T05:05:39Z</time>
      </trkpt>
      <trkpt lat="48.73302" lon="2.08343">
        <ele>144.153</ele>
        <time>2013-08-02T05:05:45Z</time>
      </trkpt>
      <trkpt lat="48.73329" lon="2.08385">
        <ele>138.127</ele>
        <time>2013-08-02T05:05:50Z</time>
      </trkpt>
      <trkpt lat="48.73343" lon="2.0841">
        <ele>135.793</ele>
        <time>2013-08-02T05:05:53Z</time>
      </trkpt>
      <trkpt lat="48.73357" lon="2.08431">
        <ele>132.636</ele>
        <time>2013-08-02T05:05:56Z</time>
      </trkpt>
      <trkpt lat="48.73363" lon="2.08447">
        <ele>130.075</ele>
        <time>2013-08-02T05:05:59Z</time>
      </trkpt>
      <trkpt lat="48.73378" lon="2.08462">
        <ele>127.651</ele>
        <time>2013-08-02T05:06:03Z</time>
      </trkpt>
      <trkpt lat="48.73388" lon="2.08458">
        <ele>126.712</ele>
        <time>2013-08-02T05:06:05Z</time>
      </trkpt>
      <trkpt lat="48.73403" lon="2.08446">
        <ele>125.689</ele>
        <time>2013-08-02T05:06:09Z</time>
      </trkpt>
      <trkpt lat="48.73409" lon="2.08439">
        <ele>125.604</ele>
        <time>2013-08-02T05:06:11Z</time>
      </trkpt>
      <trkpt lat="48.73429" lon="2.08423">
        <ele>126.007</ele>
        <time>2013-08-02T05:06:16Z</time>
      </trkpt>
      <trkpt lat="48.73449" lon="2.084">
        <ele>125.793</ele>
        <time>2013-08-02T05:06:21Z</time>
      </trkpt>
      <trkpt lat="48.73452" lon="2.08393">
        <ele>125.506</ele>
        <time>2013-08-02T05:06:22Z</time>
      </trkpt>
      <trkpt lat="48.73461" lon="2.08375">
        <ele>124.668</ele>
        <time>2013-08-02T05:06:24Z</time>
      </trkpt>
      <trkpt lat="48.73483" lon="2.08356">
        <ele>122.855</ele>
        <time>2013-08-02T05:06:28Z</time>
      </trkpt>
      <trkpt lat="48.73525" lon="2.08346">
        <ele>121.808</ele>
        <time>2013-08-02T05:06:35Z</time>
      </trkpt>
      <trkpt lat="48.73564" lon="2.08318">
        <ele>120.298</ele>
        <time>2013-08-02T05:06:42Z</time>
      </trkpt>
      <trkpt lat="48.73573" lon="2.0831">
        <ele>120.059</ele>
        <time>2013-08-02T05:06:44Z</time>
      </trkpt>
      <trkpt lat="48.73607" lon="2.08299">
        <ele>119.342</ele>
        <time>2013-08-02T05:06:50Z</time>
      </trkpt>
      <trkpt lat="48.73639" lon="2.08292">
        <ele>119.287</ele>
        <time>2013-08-02T05:06:56Z</time>
      </trkpt>
      <trkpt lat="48.7367" lon="2.08293">
        <ele>120.199</ele>
        <time>2013-08-02T05:07:03Z</time>
      </trkpt>
      <trkpt lat="48.73705" lon="2.08288">
        <ele>120.986</ele>
        <time>2013-08-02T05:07:12Z</time>
      </trkpt>
      <trkpt lat="48.73728" lon="2.08277">
        <ele>122.17</ele>
        <time>2013-08-02T05:07:19Z</time>
      </trkpt>
      <trkpt lat="48.73751" lon="2.0826">
        <ele>122.562</ele>
        <time>2013-08-02T05:07:26Z</time>
      </trkpt>
      <trkpt lat="48.73758" lon="2.08253">
        <ele>122.463</ele>
        <time>2013-08-02T05:07:28Z</time>
      </trkpt>
      <trkpt lat="48.73782" lon="2.0822">
        <ele>121.637</ele>
        <time>2013-08-02T05:07:35Z</time>
      </trkpt>
      <trkpt lat="48.73788" lon="2.08209">
        <ele>121.409</ele>
        <time>2013-08-02T05:07:37Z</time>
      </trkpt>
      <trkpt lat="48.73804" lon="2.08184">
        <ele>120.873</ele>
        <time>2013-08-02T05:07:42Z</time>
      </trkpt>
      <trkpt lat="48.73829" lon="2.0815">
        <ele>120.748</ele>
        <time>2013-08-02T05:07:50Z</time>
      </trkpt>
      <trkpt lat="48.7384" lon="2.08134">
        <ele>120.865</ele>
        <time>2013-08-02T05:07:54Z</time>
      </trkpt>
      <trkpt lat="48.73854" lon="2.08117">
        <ele>120.757</ele>
        <time>2013-08-02T05:07:58Z</time>
      </trkpt>
      <trkpt lat="48.73872" lon="2.08099">
        <ele>120.552</ele>
        <time>2013-08-02T05:08:03Z</time>
      </trkpt>
      <trkpt lat="48.73883" lon="2.08093">
        <ele>120.46</ele>
        <time>2013-08-02T05:08:06Z</time>
      </trkpt>
      <trkpt lat="48.73901" lon="2.08101">
        <ele>120.069</ele>
        <time>2013-08-02T05:08:11Z</time>
      </trkpt>
      <trkpt lat="48.73912" lon="2.08113">
        <ele>119.858</ele>
        <time>2013-08-02T05:08:15Z</time>
      </trkpt>
      <trkpt lat="48.73929" lon="2.08127">
        <ele>120.246</ele>
        <time>2013-08-02T05:08:21Z</time>
      </trkpt>
      <trkpt lat="48.73937" lon="2.08132">
        <ele>120.263</ele>
        <time>2013-08-02T05:08:23Z</time>
      </trkpt>
      <trkpt lat="48.73958" lon="2.08135">
        <ele>120.069</ele>
        <time>2013-08-02T05:08:28Z</time>
      </trkpt>
      <trkpt lat="48.73979" lon="2.08119">
        <ele>119.949</ele>
        <time>2013-08-02T05:08:34Z</time>
      </trkpt>
      <trkpt lat="48.73992" lon="2.08098">
        <ele>119.676</ele>
        <time>2013-08-02T05:08:39Z</time>
      </trkpt>
      <trkpt lat="48.73994" lon="2.08088">
        <ele>119.68</ele>
        <time>2013-08-02T05:08:41Z</time>
      </trkpt>
      <trkpt lat="48.73995" lon="2.08061">
        <ele>119.857</ele>
        <time>2013-08-02T05:08:46Z</time>
      </trkpt>
      <trkpt lat="48.74001" lon="2.08027">
        <ele>119.901</ele>
        <time>2013-08-02T05:08:52Z</time>
      </trkpt>
      <trkpt lat="48.7401" lon="2.07988">
        <ele>119.82</ele>
        <time>2013-08-02T05:08:59Z</time>
      </trkpt>
      <trkpt lat="48.7402" lon="2.07956">
        <ele>119.585</ele>
        <time>2013-08-02T05:09:05Z</time>
      </trkpt>
      <trkpt lat="48.7403" lon="2.07928">
        <ele>119.706</ele>
        <time>2013-08-02T05:09:11Z</time>
      </trkpt>
      <trkpt lat="48.74043" lon="2.07899">
        <ele>119.633</ele>
        <time>2013-08-02T05:09:18Z</time>
      </trkpt>
      <trkpt lat="48.74054" lon="2.07894">
        <ele>119.119</ele>
        <time>2013-08-02T05:09:22Z</time>
      </trkpt>
      <trkpt lat="48.74065" lon="2.07901">
        <ele>118.592</ele>
        <time>2013-08-02T05:09:25Z</time>
      </trkpt>
      <trkpt lat="48.74077" lon="2.07907">
        <ele>117.959</ele>
        <time>2013-08-02T05:09:28Z</time>
      </trkpt>
      <trkpt lat="48.74089" lon="2.07913">
        <ele>117.792</ele>
        <time>2013-08-02T05:09:31Z</time>
      </trkpt>
      <trkpt lat="48.74108" lon="2.07927">
        <ele>117.826</ele>
        <time>2013-08-02T05:09:37Z</time>
      </trkpt>
      <trkpt lat="48.7413" lon="2.07945">
        <ele>118.336</ele>
        <time>2013-08-02T05:09:44Z</time>
      </trkpt>
      <trkpt lat="48.74141" lon="2.07951">
        <ele>118.458</ele>
        <time>2013-08-02T05:09:48Z</time>
      </trkpt>
      <trkpt lat="48.74153" lon="2.0795">
        <ele>118.671</ele>
        <time>2013-08-02T05:09:52Z</time>
      </trkpt>
      <trkpt lat="48.74169" lon="2.07951">
        <ele>119.38</ele>
        <time>2013-08-02T05:09:57Z</time>
      </trkpt>
      <trkpt lat="48.74182" lon="2.07948">
        <ele>119.984</ele>
        <time>2013-08-02T05:10:02Z</time>
      </trkpt>
      <trkpt lat="48.74194" lon="2.07942">
        <ele>120.569</ele>
        <time>2013-08-02T05:10:07Z</time>
      </trkpt>
      <trkpt lat="48.74207" lon="2.07926">
        <ele>121.165</ele>
        <time>2013-08-02T05:10:12Z</time>
      </trkpt>
      <trkpt lat="48.74213" lon="2.079">
        <ele>121.325</ele>
        <time>2013-08-02T05:10:18Z</time>
      </trkpt>
      <trkpt lat="48.74213" lon="2.07896">
        <ele>121.395</ele>
        <time>2013-08-02T05:10:19Z</time>
      </trkpt>
      <trkpt lat="48.74213" lon="2.07875">
        <ele>121.535</ele>
        <time>2013-08-02T05:10:24Z</time>
      </trkpt>
      <trkpt lat="48.74212" lon="2.07852">
        <ele>121.55</ele>
        <time>2013-08-02T05:10:28Z</time>
      </trkpt>
      <trkpt lat="48.74217" lon="2.07822">
        <ele>121.751</ele>
        <time>2013-08-02T05:10:34Z</time>
      </trkpt>
      <trkpt lat="48.74224" lon="2.07802">
        <ele>122.395</ele>
        <time>2013-08-02T05:10:40Z</time>
      </trkpt>
      <trkpt lat="48.74232" lon="2.07785">
        <ele>123.321</ele>
        <time>2013-08-02T05:10:47Z</time>
      </trkpt>
      <trkpt lat="48.74239" lon="2.07776">
        <ele>124.702</ele>
        <time>2013-08-02T05:10:54Z</time>
      </trkpt>
      <trkpt lat="48.74245" lon="2.07767">
        <ele>125.694</ele>
        <time>2013-08-02T05:10:59Z</time>
      </trkpt>
      <trkpt lat="48.74256" lon="2.07753">
        <ele>126.902</ele>
        <time>2013-08-02T05:11:06Z</time>
      </trkpt>
      <trkpt lat="48.74264" lon="2.07746">
        <ele>127.979</ele>
        <time>2013-08-02T05:11:12Z</time>
      </trkpt>
      <trkpt lat="48.7427" lon="2.07742">
        <ele>128.682</ele>
        <time>2013-08-02T05:11:15Z</time>
      </trkpt>
      <trkpt lat="48.74277" lon="2.07744">
        <ele>129.86</ele>
        <time>2013-08-02T05:11:21Z</time>
      </trkpt>
      <trkpt lat="48.74281" lon="2.07751">
        <ele>131.057</ele>
        <time>2013-08-02T05:11:27Z</time>
      </trkpt>
      <trkpt lat="48.74281" lon="2.0777">
        <ele>132.168</ele>
        <time>2013-08-02T05:11:34Z</time>
      </trkpt>
      <trkpt lat="48.74277" lon="2.07784">
        <ele>133.142</ele>
        <time>2013-08-02T05:11:40Z</time>
      </trkpt>
      <trkpt lat="48.74275" lon="2.07798">
        <ele>134.351</ele>
        <time>2013-08-02T05:11:48Z</time>
      </trkpt>
      <trkpt lat="48.74272" lon="2.07809">
        <ele>135.099</ele>
        <time>2013-08-02T05:11:53Z</time>
      </trkpt>
      <trkpt lat="48.74273" lon="2.07823">
        <ele>136.27</ele>
        <time>2013-08-02T05:11:59Z</time>
      </trkpt>
      <trkpt lat="48.74277" lon="2.07839">
        <ele>137.546</ele>
        <time>2013-08-02T05:12:07Z</time>
      </trkpt>
      <trkpt lat="48.74284" lon="2.07852">
        <ele>138.495</ele>
        <time>2013-08-02T05:12:14Z</time>
      </trkpt>
      <trkpt lat="48.74292" lon="2.07863">
        <ele>139.691</ele>
        <time>2013-08-02T05:12:21Z</time>
      </trkpt>
      <trkpt lat="48.74302" lon="2.07871">
        <ele>140.883</ele>
        <time>2013-08-02T05:12:28Z</time>
      </trkpt>
      <trkpt lat="48.74311" lon="2.07876">
        <ele>141.889</ele>
        <time>2013-08-02T05:12:34Z</time>
      </trkpt>
      <trkpt lat="48.74325" lon="2.07889">
        <ele>142.838</ele>
        <time>2013-08-02T05:12:42Z</time>
      </trkpt>
      <trkpt lat="48.74336" lon="2.07898">
        <ele>144.144</ele>
        <time>2013-08-02T05:12:49Z</time>
      </trkpt>
      <trkpt lat="48.74346" lon="2.07907">
        <ele>145.411</ele>
        <time>2013-08-02T05:12:56Z</time>
      </trkpt>
      <trkpt lat="48.74355" lon="2.07912">
        <ele>146.467</ele>
        <time>2013-08-02T05:13:03Z</time>
      </trkpt>
      <trkpt lat="48.74363" lon="2.07918">
        <ele>147.466</ele>
        <time>2013-08-02T05:13:09Z</time>
      </trkpt>
      <trkpt lat="48.74376" lon="2.07924">
        <ele>148.67</ele>
        <time>2013-08-02T05:13:16Z</time>
      </trkpt>
      <trkpt lat="48.74384" lon="2.07927">
        <ele>149.454</ele>
        <time>2013-08-02T05:13:22Z</time>
      </trkpt>
      <trkpt lat="48.74388" lon="2.07931">
        <ele>149.867</ele>
        <time>2013-08-02T05:13:26Z</time>
      </trkpt>
      <trkpt lat="48.74398" lon="2.07936">
        <ele>150.429</ele>
        <time>2013-08-02T05:13:31Z</time>
      </trkpt>
      <trkpt lat="48.74409" lon="2.07941">
        <ele>151.666</ele>
        <time>2013-08-02T05:13:39Z</time>
      </trkpt>
      <trkpt lat="48.74422" lon="2.07947">
        <ele>152.666</ele>
        <time>2013-08-02T05:13:47Z</time>
      </trkpt>
      <trkpt lat="48.74435" lon="2.07949">
        <ele>153.923</ele>
        <time>2013-08-02T05:13:55Z</time>
      </trkpt>
      <trkpt lat="48.74445" lon="2.07951">
        <ele>154.801</ele>
        <time>2013-08-02T05:14:01Z</time>
      </trkpt>
      <trkpt lat="48.74457" lon="2.07954">
        <ele>155.772</ele>
        <time>2013-08-02T05:14:08Z</time>
      </trkpt>
      <trkpt lat="48.74471" lon="2.0796">
        <ele>156.846</ele>
        <time>2013-08-02T05:14:15Z</time>
      </trkpt>
      <trkpt lat="48.74478" lon="2.07962">
        <ele>157.354</ele>
        <time>2013-08-02T05:14:19Z</time>
      </trkpt>
      <trkpt lat="48.74485" lon="2.07963">
        <ele>158.254</ele>
        <time>2013-08-02T05:14:25Z</time>
      </trkpt>
      <trkpt lat="48.74499" lon="2.07976">
        <ele>158.69</ele>
        <time>2013-08-02T05:14:31Z</time>
      </trkpt>
      <trkpt lat="48.74513" lon="2.07987">
        <ele>158.412</ele>
        <time>2013-08-02T05:14:36Z</time>
      </trkpt>
      <trkpt lat="48.74514" lon="2.07988">
        <ele>158.365</ele>
        <time>2013-08-02T05:14:37Z</time>
      </trkpt>
      <trkpt lat="48.74524" lon="2.07997">
        <ele>158.84</ele>
        <time>2013-08-02T05:14:44Z</time>
      </trkpt>
      <trkpt lat="48.74535" lon="2.08013">
        <ele>159.252</ele>
        <time>2013-08-02T05:14:50Z</time>
      </trkpt>
      <trkpt lat="48.74534" lon="2.08028">
        <ele>159.156</ele>
        <time>2013-08-02T05:14:53Z</time>
      </trkpt>
      <trkpt lat="48.74527" lon="2.08065">
        <ele>158.167</ele>
        <time>2013-08-02T05:14:57Z</time>
      </trkpt>
      <trkpt lat="48.74532" lon="2.0808">
        <ele>157.534</ele>
        <time>2013-08-02T05:15:00Z</time>
      </trkpt>
      <trkpt lat="48.74539" lon="2.08081">
        <ele>157.825</ele>
        <time>2013-08-02T05:15:03Z</time>
      </trkpt>
      <trkpt lat="48.7455" lon="2.08075">
        <ele>159.048</ele>
        <time>2013-08-02T05:15:09Z</time>
      </trkpt>
      <trkpt lat="48.74567" lon="2.08072">
        <ele>160.952</ele>
        <time>2013-08-02T05:15:18Z</time>
      </trkpt>
      <trkpt lat="48.74572" lon="2.08073">
        <ele>161.854</ele>
        <time>2013-08-02T05:15:21Z</time>
      </trkpt>
      <trkpt lat="48.74574" lon="2.08074">
        <ele>162.151</ele>
        <time>2013-08-02T05:15:22Z</time>
      </trkpt>
      <trkpt lat="48.74585" lon="2.08067">
        <ele>163.532</ele>
        <time>2013-08-02T05:15:28Z</time>
      </trkpt>
      <trkpt lat="48.74596" lon="2.08034">
        <ele>163.909</ele>
        <time>2013-08-02T05:15:37Z</time>
      </trkpt>
      <trkpt lat="48.74607" lon="2.08001">
        <ele>163.876</ele>
        <time>2013-08-02T05:15:45Z</time>
      </trkpt>
      <trkpt lat="48.74621" lon="2.07962">
        <ele>164.01</ele>
        <time>2013-08-02T05:15:54Z</time>
      </trkpt>
      <trkpt lat="48.74638" lon="2.07916">
        <ele>164.701</ele>
        <time>2013-08-02T05:16:05Z</time>
      </trkpt>
      <trkpt lat="48.74653" lon="2.07874">
        <ele>165.576</ele>
        <time>2013-08-02T05:16:15Z</time>
      </trkpt>
      <trkpt lat="48.74666" lon="2.07839">
        <ele>166.234</ele>
        <time>2013-08-02T05:16:24Z</time>
      </trkpt>
      <trkpt lat="48.74679" lon="2.07802">
        <ele>167.247</ele>
        <time>2013-08-02T05:16:33Z</time>
      </trkpt>
      <trkpt lat="48.74698" lon="2.0775">
        <ele>168.127</ele>
        <time>2013-08-02T05:16:45Z</time>
      </trkpt>
      <trkpt lat="48.74712" lon="2.07711">
        <ele>168.556</ele>
        <time>2013-08-02T05:16:54Z</time>
      </trkpt>
      <trkpt lat="48.7473" lon="2.07663">
        <ele>169.159</ele>
        <time>2013-08-02T05:17:05Z</time>
      </trkpt>
      <trkpt lat="48.74747" lon="2.07616">
        <ele>169.722</ele>
        <time>2013-08-02T05:17:15Z</time>
      </trkpt>
      <trkpt lat="48.74765" lon="2.07566">
        <ele>170.083</ele>
        <time>2013-08-02T05:17:25Z</time>
      </trkpt>
      <trkpt lat="48.74775" lon="2.07539">
        <ele>170.363</ele>
        <time>2013-08-02T05:17:30Z</time>
      </trkpt>
      <trkpt lat="48.74795" lon="2.07483">
        <ele>170.813</ele>
        <time>2013-08-02T05:17:40Z</time>
      </trkpt>
      <trkpt lat="48.74818" lon="2.07421">
        <ele>171.303</ele>
        <time>2013-08-02T05:17:51Z</time>
      </trkpt>
      <trkpt lat="48.74837" lon="2.07365">
        <ele>171.605</ele>
        <time>2013-08-02T05:18:01Z</time>
      </trkpt>
      <trkpt lat="48.74848" lon="2.07329">
        <ele>171.838</ele>
        <time>2013-08-02T05:18:08Z</time>
      </trkpt>
      <trkpt lat="48.74869" lon="2.07265">
        <ele>171.894</ele>
        <time>2013-08-02T05:18:19Z</time>
      </trkpt>
      <trkpt lat="48.74881" lon="2.07234">
        <ele>172.017</ele>
        <time>2013-08-02T05:18:25Z</time>
      </trkpt>
      <trkpt lat="48.74891" lon="2.07204">
        <ele>172.28</ele>
        <time>2013-08-02T05:18:32Z</time>
      </trkpt>
      <trkpt lat="48.74907" lon="2.07162">
        <ele>172.46</ele>
        <time>2013-08-02T05:18:40Z</time>
      </trkpt>
      <trkpt lat="48.74927" lon="2.07111">
        <ele>172.628</ele>
        <time>2013-08-02T05:18:49Z</time>
      </trkpt>
      <trkpt lat="48.74946" lon="2.0706">
        <ele>172.904</ele>
        <time>2013-08-02T05:18:58Z</time>
      </trkpt>
      <trkpt lat="48.74962" lon="2.0702">
        <ele>172.969</ele>
        <time>2013-08-02T05:19:05Z</time>
      </trkpt>
      <trkpt lat="48.74965" lon="2.07015">
        <ele>173.013</ele>
        <time>2013-08-02T05:19:06Z</time>
      </trkpt>
      <trkpt lat="48.74996" lon="2.06942">
        <ele>172.974</ele>
        <time>2013-08-02T05:19:19Z</time>
      </trkpt>
      <trkpt lat="48.75015" lon="2.06895">
        <ele>173.17</ele>
        <time>2013-08-02T05:19:27Z</time>
      </trkpt>
      <trkpt lat="48.75033" lon="2.06834">
        <ele>173.364</ele>
        <time>2013-08-02T05:19:37Z</time>
      </trkpt>
      <trkpt lat="48.75046" lon="2.06778">
        <ele>173.703</ele>
        <time>2013-08-02T05:19:47Z</time>
      </trkpt>
      <trkpt lat="48.75047" lon="2.06772">
        <ele>173.813</ele>
        <time>2013-08-02T05:19:49Z</time>
      </trkpt>
      <trkpt lat="48.75054" lon="2.06773">
        <ele>173.823</ele>
        <time>2013-08-02T05:19:53Z</time>
      </trkpt>
      <trkpt lat="48.75062" lon="2.06782">
        <ele>173.939</ele>
        <time>2013-08-02T05:19:56Z</time>
      </trkpt>
      <trkpt lat="48.75087" lon="2.06789">
        <ele>173.969</ele>
        <time>2013-08-02T05:20:03Z</time>
      </trkpt>
      <trkpt lat="48.751" lon="2.06777">
        <ele>173.837</ele>
        <time>2013-08-02T05:20:07Z</time>
      </trkpt>
      <trkpt lat="48.75115" lon="2.06767">
        <ele>173.872</ele>
        <time>2013-08-02T05:20:11Z</time>
      </trkpt>
      <trkpt lat="48.75134" lon="2.06772">
        <ele>173.962</ele>
        <time>2013-08-02T05:20:16Z</time>
      </trkpt>
      <trkpt lat="48.75167" lon="2.06794">
        <ele>173.995</ele>
        <time>2013-08-02T05:20:24Z</time>
      </trkpt>
      <trkpt lat="48.75183" lon="2.06808">
        <ele>173.946</ele>
        <time>2013-08-02T05:20:28Z</time>
      </trkpt>
      <trkpt lat="48.75215" lon="2.06839">
        <ele>173.816</ele>
        <time>2013-08-02T05:20:36Z</time>
      </trkpt>
      <trkpt lat="48.75254" lon="2.0687">
        <ele>173.477</ele>
        <time>2013-08-02T05:20:45Z</time>
      </trkpt>
      <trkpt lat="48.75288" lon="2.06898">
        <ele>173.201</ele>
        <time>2013-08-02T05:20:53Z</time>
      </trkpt>
      <trkpt lat="48.75333" lon="2.06932">
        <ele>173.165</ele>
        <time>2013-08-02T05:21:03Z</time>
      </trkpt>
      <trkpt lat="48.75389" lon="2.06975">
        <ele>172.725</ele>
        <time>2013-08-02T05:21:15Z</time>
      </trkpt>
      <trkpt lat="48.75425" lon="2.07002">
        <ele>172.68</ele>
        <time>2013-08-02T05:21:23Z</time>
      </trkpt>
      <trkpt lat="48.75473" lon="2.0704">
        <ele>172.959</ele>
        <time>2013-08-02T05:21:34Z</time>
      </trkpt>
      <trkpt lat="48.75509" lon="2.07068">
        <ele>173.085</ele>
        <time>2013-08-02T05:21:42Z</time>
      </trkpt>
      <trkpt lat="48.75543" lon="2.0709">
        <ele>173.341</ele>
        <time>2013-08-02T05:21:50Z</time>
      </trkpt>
      <trkpt lat="48.7555" lon="2.07095">
        <ele>173.358</ele>
        <time>2013-08-02T05:21:52Z</time>
      </trkpt>
      <trkpt lat="48.75563" lon="2.07114">
        <ele>173.335</ele>
        <time>2013-08-02T05:21:56Z</time>
      </trkpt>
      <trkpt lat="48.75569" lon="2.07133">
        <ele>173.299</ele>
        <time>2013-08-02T05:21:59Z</time>
      </trkpt>
      <trkpt lat="48.75578" lon="2.07158">
        <ele>173.182</ele>
        <time>2013-08-02T05:22:03Z</time>
      </trkpt>
      <trkpt lat="48.75583" lon="2.07191">
        <ele>173.215</ele>
        <time>2013-08-02T05:22:08Z</time>
      </trkpt>
      <trkpt lat="48.75566" lon="2.07263">
        <ele>172.742</ele>
        <time>2013-08-02T05:22:18Z</time>
      </trkpt>
      <trkpt lat="48.75557" lon="2.07305">
        <ele>172.51</ele>
        <time>2013-08-02T05:22:24Z</time>
      </trkpt>
      <trkpt lat="48.75545" lon="2.07355">
        <ele>172.508</ele>
        <time>2013-08-02T05:22:31Z</time>
      </trkpt>
      <trkpt lat="48.75529" lon="2.0743">
        <ele>172.113</ele>
        <time>2013-08-02T05:22:41Z</time>
      </trkpt>
      <trkpt lat="48.75519" lon="2.07474">
        <ele>171.81</ele>
        <time>2013-08-02T05:22:47Z</time>
      </trkpt>
      <trkpt lat="48.75506" lon="2.07489">
        <ele>171.75</ele>
        <time>2013-08-02T05:22:51Z</time>
      </trkpt>
      <trkpt lat="48.75488" lon="2.07513">
        <ele>171.475</ele>
        <time>2013-08-02T05:22:56Z</time>
      </trkpt>
      <trkpt lat="48.75489" lon="2.07542">
        <ele>171.543</ele>
        <time>2013-08-02T05:23:00Z</time>
      </trkpt>
      <trkpt lat="48.75503" lon="2.0756">
        <ele>171.746</ele>
        <time>2013-08-02T05:23:04Z</time>
      </trkpt>
      <trkpt lat="48.75522" lon="2.07564">
        <ele>172.109</ele>
        <time>2013-08-02T05:23:08Z</time>
      </trkpt>
      <trkpt lat="48.75529" lon="2.07573">
        <ele>172.179</ele>
        <time>2013-08-02T05:23:10Z</time>
      </trkpt>
      <trkpt lat="48.75566" lon="2.07653">
        <ele>172.014</ele>
        <time>2013-08-02T05:23:23Z</time>
      </trkpt>
      <trkpt lat="48.7559" lon="2.07703">
        <ele>171.711</ele>
        <time>2013-08-02T05:23:31Z</time>
      </trkpt>
      <trkpt lat="48.75614" lon="2.07752">
        <ele>171.319</ele>
        <time>2013-08-02T05:23:39Z</time>
      </trkpt>
      <trkpt lat="48.75636" lon="2.07794">
        <ele>170.979</ele>
        <time>2013-08-02T05:23:46Z</time>
      </trkpt>
      <trkpt lat="48.75658" lon="2.07846">
        <ele>170.894</ele>
        <time>2013-08-02T05:23:54Z</time>
      </trkpt>
      <trkpt lat="48.75673" lon="2.07877">
        <ele>170.657</ele>
        <time>2013-08-02T05:23:59Z</time>
      </trkpt>
      <trkpt lat="48.75678" lon="2.07889">
        <ele>170.471</ele>
        <time>2013-08-02T05:24:01Z</time>
      </trkpt>
      <trkpt lat="48.75682" lon="2.0791">
        <ele>170.358</ele>
        <time>2013-08-02T05:24:04Z</time>
      </trkpt>
      <trkpt lat="48.75695" lon="2.07938">
        <ele>170.416</ele>
        <time>2013-08-02T05:24:09Z</time>
      </trkpt>
      <trkpt lat="48.75701" lon="2.07951">
        <ele>170.307</ele>
        <time>2013-08-02T05:24:11Z</time>
      </trkpt>
      <trkpt lat="48.75716" lon="2.08">
        <ele>169.756</ele>
        <time>2013-08-02T05:24:18Z</time>
      </trkpt>
      <trkpt lat="48.75714" lon="2.08029">
        <ele>169.537</ele>
        <time>2013-08-02T05:24:22Z</time>
      </trkpt>
      <trkpt lat="48.75712" lon="2.08061">
        <ele>169.332</ele>
        <time>2013-08-02T05:24:26Z</time>
      </trkpt>
      <trkpt lat="48.75702" lon="2.08102">
        <ele>168.559</ele>
        <time>2013-08-02T05:24:31Z</time>
      </trkpt>
      <trkpt lat="48.7567" lon="2.08141">
        <ele>167.224</ele>
        <time>2013-08-02T05:24:38Z</time>
      </trkpt>
      <trkpt lat="48.75629" lon="2.08163">
        <ele>167.265</ele>
        <time>2013-08-02T05:24:46Z</time>
      </trkpt>
      <trkpt lat="48.75597" lon="2.08187">
        <ele>167.099</ele>
        <time>2013-08-02T05:24:53Z</time>
      </trkpt>
      <trkpt lat="48.75574" lon="2.08218">
        <ele>167.221</ele>
        <time>2013-08-02T05:24:59Z</time>
      </trkpt>
      <trkpt lat="48.75562" lon="2.08243">
        <ele>167.054</ele>
        <time>2013-08-02T05:25:03Z</time>
      </trkpt>
      <trkpt lat="48.75546" lon="2.08301">
        <ele>167.18</ele>
        <time>2013-08-02T05:25:11Z</time>
      </trkpt>
      <trkpt lat="48.7554" lon="2.08353">
        <ele>167.366</ele>
        <time>2013-08-02T05:25:18Z</time>
      </trkpt>
      <trkpt lat="48.75538" lon="2.08428">
        <ele>168.567</ele>
        <time>2013-08-02T05:25:29Z</time>
      </trkpt>
      <trkpt lat="48.7554" lon="2.08492">
        <ele>169.839</ele>
        <time>2013-08-02T05:25:39Z</time>
      </trkpt>
      <trkpt lat="48.75543" lon="2.08528">
        <ele>170.906</ele>
        <time>2013-08-02T05:25:45Z</time>
      </trkpt>
      <trkpt lat="48.7555" lon="2.08583">
        <ele>172.136</ele>
        <time>2013-08-02T05:25:54Z</time>
      </trkpt>
      <trkpt lat="48.75555" lon="2.08608">
        <ele>172.237</ele>
        <time>2013-08-02T05:25:58Z</time>
      </trkpt>
      <trkpt lat="48.75559" lon="2.08619">
        <ele>172.332</ele>
        <time>2013-08-02T05:26:00Z</time>
      </trkpt>
      <trkpt lat="48.75584" lon="2.08675">
        <ele>172.01</ele>
        <time>2013-08-02T05:26:09Z</time>
      </trkpt>
      <trkpt lat="48.75611" lon="2.08713">
        <ele>171.034</ele>
        <time>2013-08-02T05:26:15Z</time>
      </trkpt>
      <trkpt lat="48.75647" lon="2.08747">
        <ele>169.642</ele>
        <time>2013-08-02T05:26:21Z</time>
      </trkpt>
      <trkpt lat="48.75691" lon="2.08771">
        <ele>168.348</ele>
        <time>2013-08-02T05:26:27Z</time>
      </trkpt>
      <trkpt lat="48.75731" lon="2.08788">
        <ele>166.999</ele>
        <time>2013-08-02T05:26:32Z</time>
      </trkpt>
      <trkpt lat="48.75762" lon="2.08802">
        <ele>166.092</ele>
        <time>2013-08-02T05:26:36Z</time>
      </trkpt>
      <trkpt lat="48.75835" lon="2.08834">
        <ele>165.148</ele>
        <time>2013-08-02T05:26:46Z</time>
      </trkpt>
      <trkpt lat="48.75896" lon="2.08861">
        <ele>165.352</ele>
        <time>2013-08-02T05:26:55Z</time>
      </trkpt>
      <trkpt lat="48.7596" lon="2.0889">
        <ele>166.012</ele>
        <time>2013-08-02T05:27:05Z</time>
      </trkpt>
      <trkpt lat="48.76012" lon="2.08914">
        <ele>166.127</ele>
        <time>2013-08-02T05:27:13Z</time>
      </trkpt>
      <trkpt lat="48.76056" lon="2.08933">
        <ele>166.672</ele>
        <time>2013-08-02T05:27:20Z</time>
      </trkpt>
      <trkpt lat="48.76094" lon="2.08949">
        <ele>166.884</ele>
        <time>2013-08-02T05:27:26Z</time>
      </trkpt>
      <trkpt lat="48.76126" lon="2.08948">
        <ele>167.015</ele>
        <time>2013-08-02T05:27:31Z</time>
      </trkpt>
      <trkpt lat="48.76156" lon="2.08932">
        <ele>167.15</ele>
        <time>2013-08-02T05:27:36Z</time>
      </trkpt>
      <trkpt lat="48.76178" lon="2.08909">
        <ele>167.195</ele>
        <time>2013-08-02T05:27:41Z</time>
      </trkpt>
      <trkpt lat="48.76187" lon="2.08885">
        <ele>167.122</ele>
        <time>2013-08-02T05:27:45Z</time>
      </trkpt>
      <trkpt lat="48.7619" lon="2.08845">
        <ele>167.317</ele>
        <time>2013-08-02T05:27:51Z</time>
      </trkpt>
      <trkpt lat="48.76187" lon="2.08821">
        <ele>167.457</ele>
        <time>2013-08-02T05:27:55Z</time>
      </trkpt>
      <trkpt lat="48.7616" lon="2.08765">
        <ele>167.004</ele>
        <time>2013-08-02T05:28:04Z</time>
      </trkpt>
      <trkpt lat="48.76144" lon="2.08735">
        <ele>166.777</ele>
        <time>2013-08-02T05:28:09Z</time>
      </trkpt>
      <trkpt lat="48.76145" lon="2.0871">
        <ele>166.563</ele>
        <time>2013-08-02T05:28:13Z</time>
      </trkpt>
      <trkpt lat="48.76143" lon="2.08701">
        <ele>166.536</ele>
        <time>2013-08-02T05:28:15Z</time>
      </trkpt>
      <trkpt lat="48.7614" lon="2.08688">
        <ele>166.288</ele>
        <time>2013-08-02T05:28:18Z</time>
      </trkpt>
      <trkpt lat="48.76143" lon="2.08684">
        <ele>166.24</ele>
        <time>2013-08-02T05:28:19Z</time>
      </trkpt>
      <trkpt lat="48.76176" lon="2.08644">
        <ele>166.131</ele>
        <time>2013-08-02T05:28:28Z</time>
      </trkpt>
      <trkpt lat="48.76196" lon="2.08619">
        <ele>166.142</ele>
        <time>2013-08-02T05:28:33Z</time>
      </trkpt>
      <trkpt lat="48.76238" lon="2.08567">
        <ele>166.282</ele>
        <time>2013-08-02T05:28:43Z</time>
      </trkpt>
      <trkpt lat="48.7625" lon="2.08553">
        <ele>166.358</ele>
        <time>2013-08-02T05:28:46Z</time>
      </trkpt>
      <trkpt lat="48.76257" lon="2.08538">
        <ele>166.399</ele>
        <time>2013-08-02T05:28:50Z</time>
      </trkpt>
      <trkpt lat="48.7625" lon="2.08523">
        <ele>166.251</ele>
        <time>2013-08-02T05:28:54Z</time>
      </trkpt>
      <trkpt lat="48.76247" lon="2.08518">
        <ele>166.286</ele>
        <time>2013-08-02T05:28:55Z</time>
      </trkpt>
      <trkpt lat="48.76227" lon="2.08488">
        <ele>166.232</ele>
        <time>2013-08-02T05:29:01Z</time>
      </trkpt>
      <trkpt lat="48.76205" lon="2.0845">
        <ele>166.009</ele>
        <time>2013-08-02T05:29:09Z</time>
      </trkpt>
      <trkpt lat="48.76201" lon="2.08444">
        <ele>166.018</ele>
        <time>2013-08-02T05:29:11Z</time>
      </trkpt>
      <trkpt lat="48.76203" lon="2.08433">
        <ele>166.105</ele>
        <time>2013-08-02T05:29:16Z</time>
      </trkpt>
      <trkpt lat="48.76209" lon="2.08425">
        <ele>166.256</ele>
        <time>2013-08-02T05:29:20Z</time>
      </trkpt>
      <trkpt lat="48.76211" lon="2.08422">
        <ele>166.256</ele>
        <time>2013-08-02T05:29:21Z</time>
      </trkpt>
      <trkpt lat="48.76236" lon="2.08391">
        <ele>166.304</ele>
        <time>2013-08-02T05:29:30Z</time>
      </trkpt>
      <trkpt lat="48.76255" lon="2.08366">
        <ele>166.39</ele>
        <time>2013-08-02T05:29:38Z</time>
      </trkpt>
      <trkpt lat="48.76259" lon="2.08358">
        <ele>166.372</ele>
        <time>2013-08-02T05:29:41Z</time>
      </trkpt>
      <trkpt lat="48.76259" lon="2.08356">
        <ele>166.446</ele>
        <time>2013-08-02T05:29:48Z</time>
      </trkpt>
      <trkpt lat="48.76227" lon="2.08438">
        <ele>177.083</ele>
        <time>2013-08-02T14:05:51Z</time>
      </trkpt>
      <trkpt lat="48.76234" lon="2.08454">
        <ele>177.133</ele>
        <time>2013-08-02T14:05:56Z</time>
      </trkpt>
      <trkpt lat="48.76243" lon="2.08469">
        <ele>177.259</ele>
        <time>2013-08-02T14:06:00Z</time>
      </trkpt>
      <trkpt lat="48.76256" lon="2.08491">
        <ele>177.32</ele>
        <time>2013-08-02T14:06:06Z</time>
      </trkpt>
      <trkpt lat="48.76265" lon="2.0851">
        <ele>177.345</ele>
        <time>2013-08-02T14:06:11Z</time>
      </trkpt>
      <trkpt lat="48.76272" lon="2.08527">
        <ele>177.183</ele>
        <time>2013-08-02T14:06:17Z</time>
      </trkpt>
      <trkpt lat="48.76275" lon="2.08533">
        <ele>177.13</ele>
        <time>2013-08-02T14:06:19Z</time>
      </trkpt>
      <trkpt lat="48.76275" lon="2.08543">
        <ele>177.076</ele>
        <time>2013-08-02T14:06:23Z</time>
      </trkpt>
      <trkpt lat="48.76268" lon="2.08552">
        <ele>176.906</ele>
        <time>2013-08-02T14:06:26Z</time>
      </trkpt>
      <trkpt lat="48.76264" lon="2.08558">
        <ele>176.812</ele>
        <time>2013-08-02T14:06:28Z</time>
      </trkpt>
      <trkpt lat="48.76262" lon="2.08561">
        <ele>176.838</ele>
        <time>2013-08-02T14:06:29Z</time>
      </trkpt>
      <trkpt lat="48.76238" lon="2.0859">
        <ele>176.538</ele>
        <time>2013-08-02T14:06:37Z</time>
      </trkpt>
      <trkpt lat="48.76233" lon="2.08596">
        <ele>176.299</ele>
        <time>2013-08-02T14:06:39Z</time>
      </trkpt>
      <trkpt lat="48.76227" lon="2.08603">
        <ele>176.188</ele>
        <time>2013-08-02T14:06:41Z</time>
      </trkpt>
      <trkpt lat="48.7622" lon="2.08611">
        <ele>176.135</ele>
        <time>2013-08-02T14:06:44Z</time>
      </trkpt>
      <trkpt lat="48.76217" lon="2.08615">
        <ele>176.11</ele>
        <time>2013-08-02T14:06:45Z</time>
      </trkpt>
      <trkpt lat="48.76208" lon="2.08625">
        <ele>176.046</ele>
        <time>2013-08-02T14:06:48Z</time>
      </trkpt>
      <trkpt lat="48.76193" lon="2.08643">
        <ele>176.106</ele>
        <time>2013-08-02T14:06:53Z</time>
      </trkpt>
      <trkpt lat="48.7619" lon="2.08647">
        <ele>176.119</ele>
        <time>2013-08-02T14:06:54Z</time>
      </trkpt>
      <trkpt lat="48.76174" lon="2.08667">
        <ele>176.309</ele>
        <time>2013-08-02T14:06:59Z</time>
      </trkpt>
      <trkpt lat="48.76162" lon="2.08681">
        <ele>176.582</ele>
        <time>2013-08-02T14:07:03Z</time>
      </trkpt>
      <trkpt lat="48.76165" lon="2.08695">
        <ele>176.867</ele>
        <time>2013-08-02T14:07:07Z</time>
      </trkpt>
      <trkpt lat="48.76167" lon="2.08707">
        <ele>177.33</ele>
        <time>2013-08-02T14:07:11Z</time>
      </trkpt>
      <trkpt lat="48.76161" lon="2.08718">
        <ele>177.731</ele>
        <time>2013-08-02T14:07:14Z</time>
      </trkpt>
      <trkpt lat="48.76164" lon="2.08736">
        <ele>177.94</ele>
        <time>2013-08-02T14:07:18Z</time>
      </trkpt>
      <trkpt lat="48.76188" lon="2.08781">
        <ele>178.04</ele>
        <time>2013-08-02T14:07:26Z</time>
      </trkpt>
      <trkpt lat="48.76208" lon="2.08817">
        <ele>178.371</ele>
        <time>2013-08-02T14:07:32Z</time>
      </trkpt>
      <trkpt lat="48.76209" lon="2.08844">
        <ele>178.746</ele>
        <time>2013-08-02T14:07:36Z</time>
      </trkpt>
      <trkpt lat="48.76208" lon="2.08852">
        <ele>178.75</ele>
        <time>2013-08-02T14:07:37Z</time>
      </trkpt>
      <trkpt lat="48.76194" lon="2.08875">
        <ele>178.878</ele>
        <time>2013-08-02T14:07:41Z</time>
      </trkpt>
      <trkpt lat="48.76176" lon="2.08896">
        <ele>178.463</ele>
        <time>2013-08-02T14:07:45Z</time>
      </trkpt>
      <trkpt lat="48.76161" lon="2.08909">
        <ele>178.418</ele>
        <time>2013-08-02T14:07:48Z</time>
      </trkpt>
      <trkpt lat="48.7612" lon="2.08928">
        <ele>178.519</ele>
        <time>2013-08-02T14:07:54Z</time>
      </trkpt>
      <trkpt lat="48.76083" lon="2.08922">
        <ele>178.179</ele>
        <time>2013-08-02T14:08:00Z</time>
      </trkpt>
      <trkpt lat="48.76021" lon="2.08896">
        <ele>177.631</ele>
        <time>2013-08-02T14:08:11Z</time>
      </trkpt>
      <trkpt lat="48.75949" lon="2.08864">
        <ele>177.326</ele>
        <time>2013-08-02T14:08:24Z</time>
      </trkpt>
      <trkpt lat="48.7588" lon="2.08832">
        <ele>176.491</ele>
        <time>2013-08-02T14:08:37Z</time>
      </trkpt>
      <trkpt lat="48.75815" lon="2.088">
        <ele>175.818</ele>
        <time>2013-08-02T14:08:50Z</time>
      </trkpt>
      <trkpt lat="48.75766" lon="2.08779">
        <ele>176.279</ele>
        <time>2013-08-02T14:09:01Z</time>
      </trkpt>
      <trkpt lat="48.75718" lon="2.08757">
        <ele>176.107</ele>
        <time>2013-08-02T14:09:12Z</time>
      </trkpt>
      <trkpt lat="48.75684" lon="2.08741">
        <ele>177.166</ele>
        <time>2013-08-02T14:09:20Z</time>
      </trkpt>
      <trkpt lat="48.75654" lon="2.08725">
        <ele>177.749</ele>
        <time>2013-08-02T14:09:27Z</time>
      </trkpt>
      <trkpt lat="48.75638" lon="2.08712">
        <ele>178.473</ele>
        <time>2013-08-02T14:09:31Z</time>
      </trkpt>
      <trkpt lat="48.75605" lon="2.08672">
        <ele>179.69</ele>
        <time>2013-08-02T14:09:40Z</time>
      </trkpt>
      <trkpt lat="48.75578" lon="2.08622">
        <ele>181.609</ele>
        <time>2013-08-02T14:09:49Z</time>
      </trkpt>
      <trkpt lat="48.75569" lon="2.08596">
        <ele>181.941</ele>
        <time>2013-08-02T14:09:53Z</time>
      </trkpt>
      <trkpt lat="48.75562" lon="2.08568">
        <ele>181.91</ele>
        <time>2013-08-02T14:09:57Z</time>
      </trkpt>
      <trkpt lat="48.75554" lon="2.08508">
        <ele>181.374</ele>
        <time>2013-08-02T14:10:05Z</time>
      </trkpt>
      <trkpt lat="48.7555" lon="2.08442">
        <ele>179.798</ele>
        <time>2013-08-02T14:10:12Z</time>
      </trkpt>
      <trkpt lat="48.7555" lon="2.08356">
        <ele>178.03</ele>
        <time>2013-08-02T14:10:20Z</time>
      </trkpt>
      <trkpt lat="48.75559" lon="2.08283">
        <ele>176.91</ele>
        <time>2013-08-02T14:10:27Z</time>
      </trkpt>
      <trkpt lat="48.75574" lon="2.08239">
        <ele>176.398</ele>
        <time>2013-08-02T14:10:32Z</time>
      </trkpt>
      <trkpt lat="48.75595" lon="2.08205">
        <ele>176.142</ele>
        <time>2013-08-02T14:10:37Z</time>
      </trkpt>
      <trkpt lat="48.75626" lon="2.08177">
        <ele>176.303</ele>
        <time>2013-08-02T14:10:43Z</time>
      </trkpt>
      <trkpt lat="48.75658" lon="2.08162">
        <ele>176.361</ele>
        <time>2013-08-02T14:10:49Z</time>
      </trkpt>
      <trkpt lat="48.75696" lon="2.08131">
        <ele>175.984</ele>
        <time>2013-08-02T14:10:57Z</time>
      </trkpt>
      <trkpt lat="48.75721" lon="2.0809">
        <ele>176.133</ele>
        <time>2013-08-02T14:11:04Z</time>
      </trkpt>
      <trkpt lat="48.7574" lon="2.08073">
        <ele>176.27</ele>
        <time>2013-08-02T14:11:08Z</time>
      </trkpt>
      <trkpt lat="48.75758" lon="2.08055">
        <ele>175.949</ele>
        <time>2013-08-02T14:11:12Z</time>
      </trkpt>
      <trkpt lat="48.75761" lon="2.08033">
        <ele>175.879</ele>
        <time>2013-08-02T14:11:15Z</time>
      </trkpt>
      <trkpt lat="48.75751" lon="2.08007">
        <ele>176.119</ele>
        <time>2013-08-02T14:11:19Z</time>
      </trkpt>
      <trkpt lat="48.75733" lon="2.07997">
        <ele>176.626</ele>
        <time>2013-08-02T14:11:23Z</time>
      </trkpt>
      <trkpt lat="48.75725" lon="2.07987">
        <ele>176.888</ele>
        <time>2013-08-02T14:11:25Z</time>
      </trkpt>
      <trkpt lat="48.75709" lon="2.07939">
        <ele>177.681</ele>
        <time>2013-08-02T14:11:32Z</time>
      </trkpt>
      <trkpt lat="48.75704" lon="2.07904">
        <ele>177.79</ele>
        <time>2013-08-02T14:11:37Z</time>
      </trkpt>
      <trkpt lat="48.75697" lon="2.07889">
        <ele>177.979</ele>
        <time>2013-08-02T14:11:40Z</time>
      </trkpt>
      <trkpt lat="48.75685" lon="2.07892">
        <ele>178.07</ele>
        <time>2013-08-02T14:11:43Z</time>
      </trkpt>
      <trkpt lat="48.7568" lon="2.07902">
        <ele>178.265</ele>
        <time>2013-08-02T14:11:45Z</time>
      </trkpt>
      <trkpt lat="48.75665" lon="2.07932">
        <ele>178.07</ele>
        <time>2013-08-02T14:11:50Z</time>
      </trkpt>
      <trkpt lat="48.75633" lon="2.07975">
        <ele>177.681</ele>
        <time>2013-08-02T14:11:58Z</time>
      </trkpt>
      <trkpt lat="48.7563" lon="2.07981">
        <ele>177.603</ele>
        <time>2013-08-02T14:11:59Z</time>
      </trkpt>
      <trkpt lat="48.75611" lon="2.08023">
        <ele>177.137</ele>
        <time>2013-08-02T14:12:05Z</time>
      </trkpt>
      <trkpt lat="48.75599" lon="2.08041">
        <ele>176.854</ele>
        <time>2013-08-02T14:12:08Z</time>
      </trkpt>
      <trkpt lat="48.7558" lon="2.08058">
        <ele>176.548</ele>
        <time>2013-08-02T14:12:12Z</time>
      </trkpt>
      <trkpt lat="48.75539" lon="2.08074">
        <ele>176.317</ele>
        <time>2013-08-02T14:12:20Z</time>
      </trkpt>
      <trkpt lat="48.75505" lon="2.08094">
        <ele>175.923</ele>
        <time>2013-08-02T14:12:27Z</time>
      </trkpt>
      <trkpt lat="48.75482" lon="2.08127">
        <ele>175.54</ele>
        <time>2013-08-02T14:12:33Z</time>
      </trkpt>
      <trkpt lat="48.75471" lon="2.08155">
        <ele>175.9</ele>
        <time>2013-08-02T14:12:37Z</time>
      </trkpt>
      <trkpt lat="48.75462" lon="2.08209">
        <ele>176.179</ele>
        <time>2013-08-02T14:12:44Z</time>
      </trkpt>
      <trkpt lat="48.75467" lon="2.08275">
        <ele>176.239</ele>
        <time>2013-08-02T14:12:52Z</time>
      </trkpt>
      <trkpt lat="48.75479" lon="2.08368">
        <ele>176.078</ele>
        <time>2013-08-02T14:13:03Z</time>
      </trkpt>
      <trkpt lat="48.7549" lon="2.08466">
        <ele>175.201</ele>
        <time>2013-08-02T14:13:14Z</time>
      </trkpt>
      <trkpt lat="48.75503" lon="2.08563">
        <ele>175.023</ele>
        <time>2013-08-02T14:13:25Z</time>
      </trkpt>
      <trkpt lat="48.75514" lon="2.0866">
        <ele>174.781</ele>
        <time>2013-08-02T14:13:36Z</time>
      </trkpt>
      <trkpt lat="48.75524" lon="2.0874">
        <ele>174.368</ele>
        <time>2013-08-02T14:13:45Z</time>
      </trkpt>
      <trkpt lat="48.75535" lon="2.08831">
        <ele>173.916</ele>
        <time>2013-08-02T14:13:55Z</time>
      </trkpt>
      <trkpt lat="48.75547" lon="2.08924">
        <ele>173.532</ele>
        <time>2013-08-02T14:14:05Z</time>
      </trkpt>
      <trkpt lat="48.75559" lon="2.08997">
        <ele>172.574</ele>
        <time>2013-08-02T14:14:13Z</time>
      </trkpt>
      <trkpt lat="48.75572" lon="2.0904">
        <ele>172.245</ele>
        <time>2013-08-02T14:14:18Z</time>
      </trkpt>
      <trkpt lat="48.75567" lon="2.09063">
        <ele>172.097</ele>
        <time>2013-08-02T14:14:21Z</time>
      </trkpt>
      <trkpt lat="48.75558" lon="2.09071">
        <ele>171.928</ele>
        <time>2013-08-02T14:14:23Z</time>
      </trkpt>
      <trkpt lat="48.75528" lon="2.09092">
        <ele>171.588</ele>
        <time>2013-08-02T14:14:29Z</time>
      </trkpt>
      <trkpt lat="48.75483" lon="2.091">
        <ele>171.755</ele>
        <time>2013-08-02T14:14:37Z</time>
      </trkpt>
      <trkpt lat="48.75459" lon="2.09116">
        <ele>172.074</ele>
        <time>2013-08-02T14:14:42Z</time>
      </trkpt>
      <trkpt lat="48.75441" lon="2.09146">
        <ele>172.199</ele>
        <time>2013-08-02T14:14:47Z</time>
      </trkpt>
      <trkpt lat="48.75423" lon="2.09176">
        <ele>172.793</ele>
        <time>2013-08-02T14:14:53Z</time>
      </trkpt>
      <trkpt lat="48.75407" lon="2.09179">
        <ele>173.237</ele>
        <time>2013-08-02T14:14:57Z</time>
      </trkpt>
      <trkpt lat="48.75403" lon="2.09177">
        <ele>173.302</ele>
        <time>2013-08-02T14:14:58Z</time>
      </trkpt>
      <trkpt lat="48.75374" lon="2.09156">
        <ele>173.958</ele>
        <time>2013-08-02T14:15:06Z</time>
      </trkpt>
      <trkpt lat="48.75337" lon="2.0912">
        <ele>174.716</ele>
        <time>2013-08-02T14:15:16Z</time>
      </trkpt>
      <trkpt lat="48.75305" lon="2.09089">
        <ele>175.355</ele>
        <time>2013-08-02T14:15:25Z</time>
      </trkpt>
      <trkpt lat="48.75275" lon="2.09059">
        <ele>175.027</ele>
        <time>2013-08-02T14:15:33Z</time>
      </trkpt>
      <trkpt lat="48.75251" lon="2.09037">
        <ele>175.277</ele>
        <time>2013-08-02T14:15:39Z</time>
      </trkpt>
      <trkpt lat="48.75227" lon="2.09013">
        <ele>176.004</ele>
        <time>2013-08-02T14:15:46Z</time>
      </trkpt>
      <trkpt lat="48.75222" lon="2.09008">
        <ele>175.909</ele>
        <time>2013-08-02T14:15:48Z</time>
      </trkpt>
      <trkpt lat="48.75216" lon="2.08986">
        <ele>175.687</ele>
        <time>2013-08-02T14:15:53Z</time>
      </trkpt>
      <trkpt lat="48.75217" lon="2.0898">
        <ele>175.557</ele>
        <time>2013-08-02T14:15:54Z</time>
      </trkpt>
      <trkpt lat="48.75231" lon="2.08925">
        <ele>174.944</ele>
        <time>2013-08-02T14:16:03Z</time>
      </trkpt>
      <trkpt lat="48.75242" lon="2.08885">
        <ele>175.205</ele>
        <time>2013-08-02T14:16:09Z</time>
      </trkpt>
      <trkpt lat="48.7524" lon="2.08857">
        <ele>175.36</ele>
        <time>2013-08-02T14:16:13Z</time>
      </trkpt>
      <trkpt lat="48.7522" lon="2.08784">
        <ele>175.943</ele>
        <time>2013-08-02T14:16:24Z</time>
      </trkpt>
      <trkpt lat="48.752" lon="2.08718">
        <ele>175.428</ele>
        <time>2013-08-02T14:16:34Z</time>
      </trkpt>
      <trkpt lat="48.75197" lon="2.08705">
        <ele>175.387</ele>
        <time>2013-08-02T14:16:36Z</time>
      </trkpt>
      <trkpt lat="48.75185" lon="2.08658">
        <ele>175.48</ele>
        <time>2013-08-02T14:16:43Z</time>
      </trkpt>
      <trkpt lat="48.75173" lon="2.08615">
        <ele>175.815</ele>
        <time>2013-08-02T14:16:49Z</time>
      </trkpt>
      <trkpt lat="48.75155" lon="2.08555">
        <ele>175.977</ele>
        <time>2013-08-02T14:16:58Z</time>
      </trkpt>
      <trkpt lat="48.75153" lon="2.08548">
        <ele>175.972</ele>
        <time>2013-08-02T14:16:59Z</time>
      </trkpt>
      <trkpt lat="48.75128" lon="2.08501">
        <ele>174.984</ele>
        <time>2013-08-02T14:17:07Z</time>
      </trkpt>
      <trkpt lat="48.75092" lon="2.08443">
        <ele>174.556</ele>
        <time>2013-08-02T14:17:17Z</time>
      </trkpt>
      <trkpt lat="48.7506" lon="2.08391">
        <ele>173.773</ele>
        <time>2013-08-02T14:17:26Z</time>
      </trkpt>
      <trkpt lat="48.75026" lon="2.08338">
        <ele>172.604</ele>
        <time>2013-08-02T14:17:35Z</time>
      </trkpt>
      <trkpt lat="48.75004" lon="2.08302">
        <ele>172.187</ele>
        <time>2013-08-02T14:17:41Z</time>
      </trkpt>
      <trkpt lat="48.74993" lon="2.08287">
        <ele>172.242</ele>
        <time>2013-08-02T14:17:44Z</time>
      </trkpt>
      <trkpt lat="48.74983" lon="2.08291">
        <ele>172.279</ele>
        <time>2013-08-02T14:17:47Z</time>
      </trkpt>
      <trkpt lat="48.7496" lon="2.08335">
        <ele>172.693</ele>
        <time>2013-08-02T14:17:55Z</time>
      </trkpt>
      <trkpt lat="48.74929" lon="2.08391">
        <ele>172.715</ele>
        <time>2013-08-02T14:18:04Z</time>
      </trkpt>
      <trkpt lat="48.74894" lon="2.08455">
        <ele>172.319</ele>
        <time>2013-08-02T14:18:14Z</time>
      </trkpt>
      <trkpt lat="48.7487" lon="2.08494">
        <ele>172.472</ele>
        <time>2013-08-02T14:18:21Z</time>
      </trkpt>
      <trkpt lat="48.74829" lon="2.08546">
        <ele>171.676</ele>
        <time>2013-08-02T14:18:31Z</time>
      </trkpt>
      <trkpt lat="48.7478" lon="2.08608">
        <ele>171.404</ele>
        <time>2013-08-02T14:18:43Z</time>
      </trkpt>
      <trkpt lat="48.74764" lon="2.08628">
        <ele>171.706</ele>
        <time>2013-08-02T14:18:47Z</time>
      </trkpt>
      <trkpt lat="48.74761" lon="2.08632">
        <ele>171.838</ele>
        <time>2013-08-02T14:18:48Z</time>
      </trkpt>
      <trkpt lat="48.74746" lon="2.08638">
        <ele>171.934</ele>
        <time>2013-08-02T14:18:52Z</time>
      </trkpt>
      <trkpt lat="48.74736" lon="2.08626">
        <ele>171.786</ele>
        <time>2013-08-02T14:18:55Z</time>
      </trkpt>
      <trkpt lat="48.74726" lon="2.08611">
        <ele>171.608</ele>
        <time>2013-08-02T14:18:58Z</time>
      </trkpt>
      <trkpt lat="48.74722" lon="2.08606">
        <ele>171.445</ele>
        <time>2013-08-02T14:18:59Z</time>
      </trkpt>
      <trkpt lat="48.74696" lon="2.08579">
        <ele>170.869</ele>
        <time>2013-08-02T14:19:06Z</time>
      </trkpt>
      <trkpt lat="48.74674" lon="2.08562">
        <ele>170.528</ele>
        <time>2013-08-02T14:19:12Z</time>
      </trkpt>
      <trkpt lat="48.74658" lon="2.08549">
        <ele>170.305</ele>
        <time>2013-08-02T14:19:16Z</time>
      </trkpt>
      <trkpt lat="48.74645" lon="2.08557">
        <ele>170.573</ele>
        <time>2013-08-02T14:19:20Z</time>
      </trkpt>
      <trkpt lat="48.74627" lon="2.08598">
        <ele>170.714</ele>
        <time>2013-08-02T14:19:27Z</time>
      </trkpt>
      <trkpt lat="48.7462" lon="2.08617">
        <ele>170.607</ele>
        <time>2013-08-02T14:19:30Z</time>
      </trkpt>
      <trkpt lat="48.74618" lon="2.08623">
        <ele>170.627</ele>
        <time>2013-08-02T14:19:31Z</time>
      </trkpt>
      <trkpt lat="48.74613" lon="2.08635">
        <ele>170.563</ele>
        <time>2013-08-02T14:19:33Z</time>
      </trkpt>
      <trkpt lat="48.74603" lon="2.08659">
        <ele>170.669</ele>
        <time>2013-08-02T14:19:37Z</time>
      </trkpt>
      <trkpt lat="48.74587" lon="2.08694">
        <ele>171.239</ele>
        <time>2013-08-02T14:19:43Z</time>
      </trkpt>
      <trkpt lat="48.74567" lon="2.08741">
        <ele>171.751</ele>
        <time>2013-08-02T14:19:51Z</time>
      </trkpt>
      <trkpt lat="48.74553" lon="2.08774">
        <ele>171.582</ele>
        <time>2013-08-02T14:19:57Z</time>
      </trkpt>
      <trkpt lat="48.74547" lon="2.08789">
        <ele>171.44</ele>
        <time>2013-08-02T14:20:00Z</time>
      </trkpt>
      <trkpt lat="48.74534" lon="2.08788">
        <ele>171.488</ele>
        <time>2013-08-02T14:20:04Z</time>
      </trkpt>
      <trkpt lat="48.74531" lon="2.08784">
        <ele>171.484</ele>
        <time>2013-08-02T14:20:05Z</time>
      </trkpt>
      <trkpt lat="48.74518" lon="2.08769">
        <ele>171.547</ele>
        <time>2013-08-02T14:20:09Z</time>
      </trkpt>
      <trkpt lat="48.74494" lon="2.0874">
        <ele>171.401</ele>
        <time>2013-08-02T14:20:16Z</time>
      </trkpt>
      <trkpt lat="48.74487" lon="2.08733">
        <ele>171.541</ele>
        <time>2013-08-02T14:20:18Z</time>
      </trkpt>
      <trkpt lat="48.74459" lon="2.087">
        <ele>171.73</ele>
        <time>2013-08-02T14:20:26Z</time>
      </trkpt>
      <trkpt lat="48.74448" lon="2.08688">
        <ele>171.906</ele>
        <time>2013-08-02T14:20:29Z</time>
      </trkpt>
      <trkpt lat="48.74437" lon="2.08671">
        <ele>172.316</ele>
        <time>2013-08-02T14:20:33Z</time>
      </trkpt>
      <trkpt lat="48.7444" lon="2.08658">
        <ele>172.294</ele>
        <time>2013-08-02T14:20:37Z</time>
      </trkpt>
      <trkpt lat="48.74443" lon="2.08648">
        <ele>172.146</ele>
        <time>2013-08-02T14:20:39Z</time>
      </trkpt>
      <trkpt lat="48.74452" lon="2.08619">
        <ele>171.477</ele>
        <time>2013-08-02T14:20:44Z</time>
      </trkpt>
      <trkpt lat="48.74466" lon="2.08573">
        <ele>171.214</ele>
        <time>2013-08-02T14:20:51Z</time>
      </trkpt>
      <trkpt lat="48.74472" lon="2.08546">
        <ele>171</ele>
        <time>2013-08-02T14:20:55Z</time>
      </trkpt>
      <trkpt lat="48.7449" lon="2.08496">
        <ele>170.374</ele>
        <time>2013-08-02T14:21:02Z</time>
      </trkpt>
      <trkpt lat="48.74503" lon="2.08451">
        <ele>169.849</ele>
        <time>2013-08-02T14:21:08Z</time>
      </trkpt>
      <trkpt lat="48.74511" lon="2.08423">
        <ele>169.653</ele>
        <time>2013-08-02T14:21:12Z</time>
      </trkpt>
      <trkpt lat="48.74527" lon="2.08365">
        <ele>169.836</ele>
        <time>2013-08-02T14:21:20Z</time>
      </trkpt>
      <trkpt lat="48.74539" lon="2.08323">
        <ele>169.42</ele>
        <time>2013-08-02T14:21:26Z</time>
      </trkpt>
      <trkpt lat="48.74549" lon="2.08291">
        <ele>169.205</ele>
        <time>2013-08-02T14:21:31Z</time>
      </trkpt>
      <trkpt lat="48.7456" lon="2.08266">
        <ele>169.084</ele>
        <time>2013-08-02T14:21:36Z</time>
      </trkpt>
      <trkpt lat="48.74562" lon="2.08261">
        <ele>169</ele>
        <time>2013-08-02T14:21:37Z</time>
      </trkpt>
      <trkpt lat="48.74564" lon="2.08248">
        <ele>168.849</ele>
        <time>2013-08-02T14:21:39Z</time>
      </trkpt>
      <trkpt lat="48.74566" lon="2.08234">
        <ele>168.782</ele>
        <time>2013-08-02T14:21:41Z</time>
      </trkpt>
      <trkpt lat="48.74571" lon="2.08213">
        <ele>168.702</ele>
        <time>2013-08-02T14:21:44Z</time>
      </trkpt>
      <trkpt lat="48.74573" lon="2.08206">
        <ele>168.652</ele>
        <time>2013-08-02T14:21:45Z</time>
      </trkpt>
      <trkpt lat="48.74589" lon="2.08157">
        <ele>167.684</ele>
        <time>2013-08-02T14:21:52Z</time>
      </trkpt>
      <trkpt lat="48.74598" lon="2.08129">
        <ele>166.925</ele>
        <time>2013-08-02T14:21:56Z</time>
      </trkpt>
      <trkpt lat="48.74614" lon="2.08095">
        <ele>166.142</ele>
        <time>2013-08-02T14:22:01Z</time>
      </trkpt>
      <trkpt lat="48.74617" lon="2.08085">
        <ele>165.353</ele>
        <time>2013-08-02T14:22:03Z</time>
      </trkpt>
      <trkpt lat="48.7461" lon="2.08036">
        <ele>163.133</ele>
        <time>2013-08-02T14:22:11Z</time>
      </trkpt>
      <trkpt lat="48.74576" lon="2.08049">
        <ele>162.761</ele>
        <time>2013-08-02T14:22:15Z</time>
      </trkpt>
      <trkpt lat="48.74572" lon="2.08051">
        <ele>162.633</ele>
        <time>2013-08-02T14:22:16Z</time>
      </trkpt>
      <trkpt lat="48.74563" lon="2.08059">
        <ele>162.584</ele>
        <time>2013-08-02T14:22:18Z</time>
      </trkpt>
      <trkpt lat="48.74539" lon="2.08081">
        <ele>162.388</ele>
        <time>2013-08-02T14:22:24Z</time>
      </trkpt>
      <trkpt lat="48.7453" lon="2.08076">
        <ele>161.204</ele>
        <time>2013-08-02T14:22:28Z</time>
      </trkpt>
      <trkpt lat="48.74529" lon="2.08063">
        <ele>160.161</ele>
        <time>2013-08-02T14:22:31Z</time>
      </trkpt>
      <trkpt lat="48.74534" lon="2.08038">
        <ele>160.01</ele>
        <time>2013-08-02T14:22:35Z</time>
      </trkpt>
      <trkpt lat="48.74531" lon="2.08021">
        <ele>160.871</ele>
        <time>2013-08-02T14:22:39Z</time>
      </trkpt>
      <trkpt lat="48.74526" lon="2.08012">
        <ele>161.671</ele>
        <time>2013-08-02T14:22:42Z</time>
      </trkpt>
      <trkpt lat="48.74509" lon="2.07996">
        <ele>161.76</ele>
        <time>2013-08-02T14:22:47Z</time>
      </trkpt>
      <trkpt lat="48.74499" lon="2.07986">
        <ele>161.371</ele>
        <time>2013-08-02T14:22:50Z</time>
      </trkpt>
      <trkpt lat="48.74481" lon="2.07968">
        <ele>161.283</ele>
        <time>2013-08-02T14:22:56Z</time>
      </trkpt>
      <trkpt lat="48.74468" lon="2.07964">
        <ele>161.08</ele>
        <time>2013-08-02T14:22:59Z</time>
      </trkpt>
      <trkpt lat="48.74458" lon="2.07959">
        <ele>160.696</ele>
        <time>2013-08-02T14:23:01Z</time>
      </trkpt>
      <trkpt lat="48.74432" lon="2.07954">
        <ele>159.018</ele>
        <time>2013-08-02T14:23:05Z</time>
      </trkpt>
      <trkpt lat="48.74418" lon="2.07951">
        <ele>157.768</ele>
        <time>2013-08-02T14:23:07Z</time>
      </trkpt>
      <trkpt lat="48.74404" lon="2.07946">
        <ele>156.39</ele>
        <time>2013-08-02T14:23:09Z</time>
      </trkpt>
      <trkpt lat="48.7438" lon="2.07935">
        <ele>154.302</ele>
        <time>2013-08-02T14:23:12Z</time>
      </trkpt>
      <trkpt lat="48.74363" lon="2.07926">
        <ele>152.908</ele>
        <time>2013-08-02T14:23:14Z</time>
      </trkpt>
      <trkpt lat="48.74346" lon="2.07914">
        <ele>152.184</ele>
        <time>2013-08-02T14:23:16Z</time>
      </trkpt>
      <trkpt lat="48.74309" lon="2.07885">
        <ele>148.579</ele>
        <time>2013-08-02T14:23:21Z</time>
      </trkpt>
      <trkpt lat="48.74285" lon="2.07865">
        <ele>145.678</ele>
        <time>2013-08-02T14:23:25Z</time>
      </trkpt>
      <trkpt lat="48.74279" lon="2.07859">
        <ele>144.949</ele>
        <time>2013-08-02T14:23:26Z</time>
      </trkpt>
      <trkpt lat="48.7427" lon="2.07824">
        <ele>142.783</ele>
        <time>2013-08-02T14:23:30Z</time>
      </trkpt>
      <trkpt lat="48.74276" lon="2.07787">
        <ele>140.52</ele>
        <time>2013-08-02T14:23:34Z</time>
      </trkpt>
      <trkpt lat="48.74281" lon="2.07755">
        <ele>138.433</ele>
        <time>2013-08-02T14:23:37Z</time>
      </trkpt>
      <trkpt lat="48.74275" lon="2.07726">
        <ele>136.448</ele>
        <time>2013-08-02T14:23:41Z</time>
      </trkpt>
      <trkpt lat="48.74265" lon="2.07743">
        <ele>134.596</ele>
        <time>2013-08-02T14:23:44Z</time>
      </trkpt>
      <trkpt lat="48.74259" lon="2.07752">
        <ele>133.319</ele>
        <time>2013-08-02T14:23:46Z</time>
      </trkpt>
      <trkpt lat="48.74239" lon="2.07787">
        <ele>129.595</ele>
        <time>2013-08-02T14:23:51Z</time>
      </trkpt>
      <trkpt lat="48.74236" lon="2.07828">
        <ele>127.177</ele>
        <time>2013-08-02T14:23:55Z</time>
      </trkpt>
      <trkpt lat="48.74238" lon="2.07863">
        <ele>126.298</ele>
        <time>2013-08-02T14:23:58Z</time>
      </trkpt>
      <trkpt lat="48.74236" lon="2.07887">
        <ele>126.208</ele>
        <time>2013-08-02T14:24:00Z</time>
      </trkpt>
      <trkpt lat="48.74225" lon="2.07918">
        <ele>126.184</ele>
        <time>2013-08-02T14:24:02Z</time>
      </trkpt>
      <trkpt lat="48.74194" lon="2.07952">
        <ele>126.146</ele>
        <time>2013-08-02T14:24:06Z</time>
      </trkpt>
      <trkpt lat="48.74188" lon="2.07957">
        <ele>126.053</ele>
        <time>2013-08-02T14:24:07Z</time>
      </trkpt>
      <trkpt lat="48.74175" lon="2.07984">
        <ele>126.078</ele>
        <time>2013-08-02T14:24:12Z</time>
      </trkpt>
      <trkpt lat="48.74171" lon="2.07992">
        <ele>126.619</ele>
        <time>2013-08-02T14:24:14Z</time>
      </trkpt>
      <trkpt lat="48.74163" lon="2.08009">
        <ele>128.116</ele>
        <time>2013-08-02T14:24:19Z</time>
      </trkpt>
      <trkpt lat="48.74161" lon="2.08014">
        <ele>128.095</ele>
        <time>2013-08-02T14:24:20Z</time>
      </trkpt>
      <trkpt lat="48.74156" lon="2.08031">
        <ele>127.525</ele>
        <time>2013-08-02T14:24:23Z</time>
      </trkpt>
      <trkpt lat="48.74149" lon="2.08053">
        <ele>126.53</ele>
        <time>2013-08-02T14:24:26Z</time>
      </trkpt>
      <trkpt lat="48.74144" lon="2.08074">
        <ele>125.936</ele>
        <time>2013-08-02T14:24:30Z</time>
      </trkpt>
      <trkpt lat="48.74134" lon="2.081">
        <ele>125.8</ele>
        <time>2013-08-02T14:24:35Z</time>
      </trkpt>
      <trkpt lat="48.74132" lon="2.08107">
        <ele>125.827</ele>
        <time>2013-08-02T14:24:37Z</time>
      </trkpt>
      <trkpt lat="48.74125" lon="2.0813">
        <ele>125.825</ele>
        <time>2013-08-02T14:24:42Z</time>
      </trkpt>
      <trkpt lat="48.74123" lon="2.08138">
        <ele>125.736</ele>
        <time>2013-08-02T14:24:44Z</time>
      </trkpt>
      <trkpt lat="48.74118" lon="2.08162">
        <ele>125.295</ele>
        <time>2013-08-02T14:24:49Z</time>
      </trkpt>
      <trkpt lat="48.74115" lon="2.0817">
        <ele>125.195</ele>
        <time>2013-08-02T14:24:51Z</time>
      </trkpt>
      <trkpt lat="48.74114" lon="2.08174">
        <ele>125.145</ele>
        <time>2013-08-02T14:24:52Z</time>
      </trkpt>
      <trkpt lat="48.74107" lon="2.08197">
        <ele>124.921</ele>
        <time>2013-08-02T14:24:57Z</time>
      </trkpt>
      <trkpt lat="48.74102" lon="2.08212">
        <ele>125.047</ele>
        <time>2013-08-02T14:25:00Z</time>
      </trkpt>
      <trkpt lat="48.74095" lon="2.08229">
        <ele>125.194</ele>
        <time>2013-08-02T14:25:03Z</time>
      </trkpt>
      <trkpt lat="48.7409" lon="2.08248">
        <ele>125.266</ele>
        <time>2013-08-02T14:25:06Z</time>
      </trkpt>
      <trkpt lat="48.74086" lon="2.08266">
        <ele>125.071</ele>
        <time>2013-08-02T14:25:09Z</time>
      </trkpt>
      <trkpt lat="48.74069" lon="2.08294">
        <ele>124.535</ele>
        <time>2013-08-02T14:25:16Z</time>
      </trkpt>
      <trkpt lat="48.74062" lon="2.08315">
        <ele>124.448</ele>
        <time>2013-08-02T14:25:21Z</time>
      </trkpt>
      <trkpt lat="48.74062" lon="2.0833">
        <ele>124.58</ele>
        <time>2013-08-02T14:25:24Z</time>
      </trkpt>
      <trkpt lat="48.7406" lon="2.08354">
        <ele>124.968</ele>
        <time>2013-08-02T14:25:28Z</time>
      </trkpt>
      <trkpt lat="48.74058" lon="2.08359">
        <ele>125.034</ele>
        <time>2013-08-02T14:25:29Z</time>
      </trkpt>
      <trkpt lat="48.74057" lon="2.08363">
        <ele>125.217</ele>
        <time>2013-08-02T14:25:30Z</time>
      </trkpt>
      <trkpt lat="48.74055" lon="2.08367">
        <ele>125.339</ele>
        <time>2013-08-02T14:25:31Z</time>
      </trkpt>
      <trkpt lat="48.74052" lon="2.08372">
        <ele>125.501</ele>
        <time>2013-08-02T14:25:32Z</time>
      </trkpt>
      <trkpt lat="48.7404" lon="2.08378">
        <ele>125.703</ele>
        <time>2013-08-02T14:25:35Z</time>
      </trkpt>
      <trkpt lat="48.74022" lon="2.08374">
        <ele>125.71</ele>
        <time>2013-08-02T14:25:40Z</time>
      </trkpt>
      <trkpt lat="48.74019" lon="2.08373">
        <ele>125.623</ele>
        <time>2013-08-02T14:25:41Z</time>
      </trkpt>
      <trkpt lat="48.74014" lon="2.08372">
        <ele>125.505</ele>
        <time>2013-08-02T14:25:42Z</time>
      </trkpt>
      <trkpt lat="48.73997" lon="2.08367">
        <ele>125.417</ele>
        <time>2013-08-02T14:25:46Z</time>
      </trkpt>
      <trkpt lat="48.73987" lon="2.08365">
        <ele>125.338</ele>
        <time>2013-08-02T14:25:48Z</time>
      </trkpt>
      <trkpt lat="48.73961" lon="2.08354">
        <ele>124.937</ele>
        <time>2013-08-02T14:25:54Z</time>
      </trkpt>
      <trkpt lat="48.73956" lon="2.08346">
        <ele>124.846</ele>
        <time>2013-08-02T14:25:56Z</time>
      </trkpt>
      <trkpt lat="48.73953" lon="2.08314">
        <ele>124.648</ele>
        <time>2013-08-02T14:26:02Z</time>
      </trkpt>
      <trkpt lat="48.73948" lon="2.08287">
        <ele>124.683</ele>
        <time>2013-08-02T14:26:07Z</time>
      </trkpt>
      <trkpt lat="48.73945" lon="2.0828">
        <ele>124.807</ele>
        <time>2013-08-02T14:26:09Z</time>
      </trkpt>
      <trkpt lat="48.73931" lon="2.08279">
        <ele>124.295</ele>
        <time>2013-08-02T14:26:14Z</time>
      </trkpt>
      <trkpt lat="48.7392" lon="2.0828">
        <ele>123.701</ele>
        <time>2013-08-02T14:26:16Z</time>
      </trkpt>
      <trkpt lat="48.73908" lon="2.08283">
        <ele>122.854</ele>
        <time>2013-08-02T14:26:18Z</time>
      </trkpt>
      <trkpt lat="48.7389" lon="2.08294">
        <ele>121.34</ele>
        <time>2013-08-02T14:26:23Z</time>
      </trkpt>
      <trkpt lat="48.73874" lon="2.08308">
        <ele>120.88</ele>
        <time>2013-08-02T14:26:27Z</time>
      </trkpt>
      <trkpt lat="48.73865" lon="2.08314">
        <ele>120.801</ele>
        <time>2013-08-02T14:26:29Z</time>
      </trkpt>
      <trkpt lat="48.73844" lon="2.08329">
        <ele>120.213</ele>
        <time>2013-08-02T14:26:34Z</time>
      </trkpt>
      <trkpt lat="48.73836" lon="2.08335">
        <ele>120.114</ele>
        <time>2013-08-02T14:26:36Z</time>
      </trkpt>
      <trkpt lat="48.73808" lon="2.08364">
        <ele>120.029</ele>
        <time>2013-08-02T14:26:43Z</time>
      </trkpt>
      <trkpt lat="48.73789" lon="2.0838">
        <ele>120.11</ele>
        <time>2013-08-02T14:26:48Z</time>
      </trkpt>
      <trkpt lat="48.73764" lon="2.08401">
        <ele>120.093</ele>
        <time>2013-08-02T14:26:54Z</time>
      </trkpt>
      <trkpt lat="48.73744" lon="2.08416">
        <ele>119.722</ele>
        <time>2013-08-02T14:27:00Z</time>
      </trkpt>
      <trkpt lat="48.73738" lon="2.08427">
        <ele>119.545</ele>
        <time>2013-08-02T14:27:03Z</time>
      </trkpt>
      <trkpt lat="48.73736" lon="2.08436">
        <ele>119.461</ele>
        <time>2013-08-02T14:27:05Z</time>
      </trkpt>
      <trkpt lat="48.73731" lon="2.08443">
        <ele>119.357</ele>
        <time>2013-08-02T14:27:07Z</time>
      </trkpt>
      <trkpt lat="48.7372" lon="2.08446">
        <ele>119.276</ele>
        <time>2013-08-02T14:27:10Z</time>
      </trkpt>
      <trkpt lat="48.73699" lon="2.08445">
        <ele>119.249</ele>
        <time>2013-08-02T14:27:15Z</time>
      </trkpt>
      <trkpt lat="48.73681" lon="2.08442">
        <ele>118.867</ele>
        <time>2013-08-02T14:27:19Z</time>
      </trkpt>
      <trkpt lat="48.73679" lon="2.08441">
        <ele>118.852</ele>
        <time>2013-08-02T14:27:20Z</time>
      </trkpt>
      <trkpt lat="48.73661" lon="2.08436">
        <ele>118.708</ele>
        <time>2013-08-02T14:27:26Z</time>
      </trkpt>
      <trkpt lat="48.73648" lon="2.08444">
        <ele>118.365</ele>
        <time>2013-08-02T14:27:30Z</time>
      </trkpt>
      <trkpt lat="48.73633" lon="2.08448">
        <ele>118.193</ele>
        <time>2013-08-02T14:27:34Z</time>
      </trkpt>
      <trkpt lat="48.73622" lon="2.08444">
        <ele>118.173</ele>
        <time>2013-08-02T14:27:37Z</time>
      </trkpt>
      <trkpt lat="48.73619" lon="2.08442">
        <ele>118.166</ele>
        <time>2013-08-02T14:27:38Z</time>
      </trkpt>
      <trkpt lat="48.73605" lon="2.08445">
        <ele>118.163</ele>
        <time>2013-08-02T14:27:42Z</time>
      </trkpt>
      <trkpt lat="48.73592" lon="2.0846">
        <ele>118.226</ele>
        <time>2013-08-02T14:27:47Z</time>
      </trkpt>
      <trkpt lat="48.7359" lon="2.08463">
        <ele>118.188</ele>
        <time>2013-08-02T14:27:48Z</time>
      </trkpt>
      <trkpt lat="48.73587" lon="2.08466">
        <ele>118.262</ele>
        <time>2013-08-02T14:27:49Z</time>
      </trkpt>
      <trkpt lat="48.73581" lon="2.08471">
        <ele>118.228</ele>
        <time>2013-08-02T14:27:51Z</time>
      </trkpt>
      <trkpt lat="48.73569" lon="2.0849">
        <ele>118.177</ele>
        <time>2013-08-02T14:27:56Z</time>
      </trkpt>
      <trkpt lat="48.73559" lon="2.08498">
        <ele>118.034</ele>
        <time>2013-08-02T14:27:59Z</time>
      </trkpt>
      <trkpt lat="48.73547" lon="2.08515">
        <ele>118.016</ele>
        <time>2013-08-02T14:28:03Z</time>
      </trkpt>
      <trkpt lat="48.73537" lon="2.08527">
        <ele>118.064</ele>
        <time>2013-08-02T14:28:06Z</time>
      </trkpt>
      <trkpt lat="48.73531" lon="2.08533">
        <ele>118.057</ele>
        <time>2013-08-02T14:28:08Z</time>
      </trkpt>
      <trkpt lat="48.73522" lon="2.08545">
        <ele>117.985</ele>
        <time>2013-08-02T14:28:11Z</time>
      </trkpt>
      <trkpt lat="48.73499" lon="2.08565">
        <ele>117.779</ele>
        <time>2013-08-02T14:28:17Z</time>
      </trkpt>
      <trkpt lat="48.73494" lon="2.08575">
        <ele>117.822</ele>
        <time>2013-08-02T14:28:19Z</time>
      </trkpt>
      <trkpt lat="48.73488" lon="2.08592">
        <ele>117.819</ele>
        <time>2013-08-02T14:28:22Z</time>
      </trkpt>
      <trkpt lat="48.73476" lon="2.08611">
        <ele>117.613</ele>
        <time>2013-08-02T14:28:26Z</time>
      </trkpt>
      <trkpt lat="48.73465" lon="2.08633">
        <ele>117.416</ele>
        <time>2013-08-02T14:28:31Z</time>
      </trkpt>
      <trkpt lat="48.73456" lon="2.08648">
        <ele>117.484</ele>
        <time>2013-08-02T14:28:35Z</time>
      </trkpt>
      <trkpt lat="48.73439" lon="2.08664">
        <ele>117.411</ele>
        <time>2013-08-02T14:28:41Z</time>
      </trkpt>
      <trkpt lat="48.73428" lon="2.08665">
        <ele>117.307</ele>
        <time>2013-08-02T14:28:45Z</time>
      </trkpt>
      <trkpt lat="48.73411" lon="2.08668">
        <ele>118.056</ele>
        <time>2013-08-02T14:28:51Z</time>
      </trkpt>
      <trkpt lat="48.73392" lon="2.08684">
        <ele>118.316</ele>
        <time>2013-08-02T14:28:57Z</time>
      </trkpt>
      <trkpt lat="48.73362" lon="2.08704">
        <ele>117.728</ele>
        <time>2013-08-02T14:29:05Z</time>
      </trkpt>
      <trkpt lat="48.73354" lon="2.08708">
        <ele>117.577</ele>
        <time>2013-08-02T14:29:07Z</time>
      </trkpt>
      <trkpt lat="48.73339" lon="2.08717">
        <ele>117.59</ele>
        <time>2013-08-02T14:29:11Z</time>
      </trkpt>
      <trkpt lat="48.73332" lon="2.08722">
        <ele>117.48</ele>
        <time>2013-08-02T14:29:13Z</time>
      </trkpt>
      <trkpt lat="48.73328" lon="2.08725">
        <ele>117.511</ele>
        <time>2013-08-02T14:29:14Z</time>
      </trkpt>
      <trkpt lat="48.73322" lon="2.08731">
        <ele>117.463</ele>
        <time>2013-08-02T14:29:16Z</time>
      </trkpt>
      <trkpt lat="48.73315" lon="2.08736">
        <ele>117.408</ele>
        <time>2013-08-02T14:29:18Z</time>
      </trkpt>
      <trkpt lat="48.73309" lon="2.08744">
        <ele>117.273</ele>
        <time>2013-08-02T14:29:20Z</time>
      </trkpt>
      <trkpt lat="48.73286" lon="2.08768">
        <ele>116.64</ele>
        <time>2013-08-02T14:29:27Z</time>
      </trkpt>
      <trkpt lat="48.73274" lon="2.08783">
        <ele>116.523</ele>
        <time>2013-08-02T14:29:31Z</time>
      </trkpt>
      <trkpt lat="48.73258" lon="2.08803">
        <ele>116.461</ele>
        <time>2013-08-02T14:29:36Z</time>
      </trkpt>
      <trkpt lat="48.73237" lon="2.08829">
        <ele>115.978</ele>
        <time>2013-08-02T14:29:42Z</time>
      </trkpt>
      <trkpt lat="48.73221" lon="2.08847">
        <ele>115.406</ele>
        <time>2013-08-02T14:29:46Z</time>
      </trkpt>
      <trkpt lat="48.732" lon="2.08872">
        <ele>114.709</ele>
        <time>2013-08-02T14:29:51Z</time>
      </trkpt>
      <trkpt lat="48.7318" lon="2.08899">
        <ele>114.185</ele>
        <time>2013-08-02T14:29:56Z</time>
      </trkpt>
      <trkpt lat="48.73158" lon="2.08936">
        <ele>113.897</ele>
        <time>2013-08-02T14:30:02Z</time>
      </trkpt>
      <trkpt lat="48.73149" lon="2.08961">
        <ele>113.605</ele>
        <time>2013-08-02T14:30:06Z</time>
      </trkpt>
      <trkpt lat="48.73146" lon="2.08989">
        <ele>113.299</ele>
        <time>2013-08-02T14:30:10Z</time>
      </trkpt>
      <trkpt lat="48.73147" lon="2.09012">
        <ele>113.192</ele>
        <time>2013-08-02T14:30:13Z</time>
      </trkpt>
      <trkpt lat="48.73149" lon="2.09043">
        <ele>113.009</ele>
        <time>2013-08-02T14:30:17Z</time>
      </trkpt>
      <trkpt lat="48.7315" lon="2.09083">
        <ele>112.788</ele>
        <time>2013-08-02T14:30:23Z</time>
      </trkpt>
      <trkpt lat="48.73152" lon="2.09133">
        <ele>112.944</ele>
        <time>2013-08-02T14:30:32Z</time>
      </trkpt>
      <trkpt lat="48.73153" lon="2.09145">
        <ele>112.941</ele>
        <time>2013-08-02T14:30:35Z</time>
      </trkpt>
      <trkpt lat="48.73154" lon="2.09164">
        <ele>112.996</ele>
        <time>2013-08-02T14:30:41Z</time>
      </trkpt>
      <trkpt lat="48.73154" lon="2.09168">
        <ele>113.051</ele>
        <time>2013-08-02T14:30:47Z</time>
      </trkpt>
      <trkpt lat="48.73154" lon="2.09169">
        <ele>113.103</ele>
        <time>2013-08-02T14:30:56Z</time>
      </trkpt>
      <trkpt lat="48.73155" lon="2.09169">
        <ele>113.001</ele>
        <time>2013-08-02T14:31:03Z</time>
      </trkpt>
      <trkpt lat="48.73155" lon="2.09169">
        <ele>113.116</ele>
        <time>2013-08-02T14:31:16Z</time>
      </trkpt>
      <trkpt lat="48.73155" lon="2.09169">
        <ele>113.177</ele>
        <time>2013-08-02T14:31:17Z</time>
      </trkpt>
      <trkpt lat="48.73155" lon="2.09169">
        <ele>113.333</ele>
        <time>2013-08-02T14:31:30Z</time>
      </trkpt>
      <trkpt lat="48.73155" lon="2.09169">
        <ele>113.402</ele>
        <time>2013-08-02T14:31:31Z</time>
      </trkpt>
      <trkpt lat="48.73155" lon="2.09169">
        <ele>113.425</ele>
        <time>2013-08-02T14:31:32Z</time>
      </trkpt>
      <trkpt lat="48.73155" lon="2.09169">
        <ele>113.472</ele>
        <time>2013-08-02T14:31:33Z</time>
      </trkpt>
      <trkpt lat="48.73155" lon="2.09169">
        <ele>113.575</ele>
        <time>2013-08-02T14:31:35Z</time>
      </trkpt>
      <trkpt lat="48.73155" lon="2.09171">
        <ele>113.732</ele>
        <time>2013-08-02T14:31:48Z</time>
      </trkpt>
      <trkpt lat="48.73149" lon="2.09183">
        <ele>113.9</ele>
        <time>2013-08-02T14:31:53Z</time>
      </trkpt>
      <trkpt lat="48.73146" lon="2.09185">
        <ele>113.9</ele>
        <time>2013-08-02T14:31:54Z</time>
      </trkpt>
      <trkpt lat="48.73125" lon="2.09198">
        <ele>114.675</ele>
        <time>2013-08-02T14:32:01Z</time>
      </trkpt>
      <trkpt lat="48.73113" lon="2.09224">
        <ele>114.952</ele>
        <time>2013-08-02T14:32:07Z</time>
      </trkpt>
      <trkpt lat="48.73101" lon="2.09259">
        <ele>114.518</ele>
        <time>2013-08-02T14:32:15Z</time>
      </trkpt>
      <trkpt lat="48.73098" lon="2.09271">
        <ele>114.303</ele>
        <time>2013-08-02T14:32:18Z</time>
      </trkpt>
      <trkpt lat="48.7309" lon="2.09274">
        <ele>114.132</ele>
        <time>2013-08-02T14:32:22Z</time>
      </trkpt>
      <trkpt lat="48.73078" lon="2.09275">
        <ele>114.23</ele>
        <time>2013-08-02T14:32:27Z</time>
      </trkpt>
      <trkpt lat="48.73064" lon="2.09282">
        <ele>114.707</ele>
        <time>2013-08-02T14:32:33Z</time>
      </trkpt>
      <trkpt lat="48.73056" lon="2.09291">
        <ele>115.476</ele>
        <time>2013-08-02T14:32:38Z</time>
      </trkpt>
      <trkpt lat="48.73048" lon="2.09303">
        <ele>116.009</ele>
        <time>2013-08-02T14:32:43Z</time>
      </trkpt>
      <trkpt lat="48.73044" lon="2.09312">
        <ele>116.512</ele>
        <time>2013-08-02T14:32:47Z</time>
      </trkpt>
      <trkpt lat="48.73034" lon="2.09325">
        <ele>118.06</ele>
        <time>2013-08-02T14:32:53Z</time>
      </trkpt>
      <trkpt lat="48.73029" lon="2.0933">
        <ele>118.603</ele>
        <time>2013-08-02T14:32:56Z</time>
      </trkpt>
      <trkpt lat="48.73026" lon="2.09334">
        <ele>118.834</ele>
        <time>2013-08-02T14:32:58Z</time>
      </trkpt>
      <trkpt lat="48.73017" lon="2.09343">
        <ele>118.821</ele>
        <time>2013-08-02T14:33:02Z</time>
      </trkpt>
      <trkpt lat="48.73013" lon="2.09347">
        <ele>118.631</ele>
        <time>2013-08-02T14:33:04Z</time>
      </trkpt>
      <trkpt lat="48.73007" lon="2.09356">
        <ele>118.412</ele>
        <time>2013-08-02T14:33:07Z</time>
      </trkpt>
      <trkpt lat="48.73001" lon="2.09364">
        <ele>118.552</ele>
        <time>2013-08-02T14:33:10Z</time>
      </trkpt>
      <trkpt lat="48.72992" lon="2.09377">
        <ele>120.346</ele>
        <time>2013-08-02T14:33:16Z</time>
      </trkpt>
      <trkpt lat="48.72991" lon="2.09381">
        <ele>120.989</ele>
        <time>2013-08-02T14:33:18Z</time>
      </trkpt>
      <trkpt lat="48.72983" lon="2.0939">
        <ele>122.094</ele>
        <time>2013-08-02T14:33:24Z</time>
      </trkpt>
      <trkpt lat="48.7298" lon="2.09394">
        <ele>122.213</ele>
        <time>2013-08-02T14:33:26Z</time>
      </trkpt>
      <trkpt lat="48.72979" lon="2.09396">
        <ele>122.27</ele>
        <time>2013-08-02T14:33:27Z</time>
      </trkpt>
      <trkpt lat="48.72967" lon="2.09412">
        <ele>121.794</ele>
        <time>2013-08-02T14:33:34Z</time>
      </trkpt>
      <trkpt lat="48.72962" lon="2.0942">
        <ele>121.229</ele>
        <time>2013-08-02T14:33:36Z</time>
      </trkpt>
      <trkpt lat="48.72943" lon="2.0943">
        <ele>120.152</ele>
        <time>2013-08-02T14:33:41Z</time>
      </trkpt>
      <trkpt lat="48.72935" lon="2.0943">
        <ele>120.392</ele>
        <time>2013-08-02T14:33:43Z</time>
      </trkpt>
      <trkpt lat="48.72912" lon="2.09434">
        <ele>122.296</ele>
        <time>2013-08-02T14:33:50Z</time>
      </trkpt>
      <trkpt lat="48.72897" lon="2.09435">
        <ele>123.745</ele>
        <time>2013-08-02T14:33:56Z</time>
      </trkpt>
      <trkpt lat="48.72887" lon="2.09434">
        <ele>124.811</ele>
        <time>2013-08-02T14:34:01Z</time>
      </trkpt>
      <trkpt lat="48.72877" lon="2.09431">
        <ele>126.825</ele>
        <time>2013-08-02T14:34:08Z</time>
      </trkpt>
      <trkpt lat="48.72866" lon="2.09426">
        <ele>127.769</ele>
        <time>2013-08-02T14:34:14Z</time>
      </trkpt>
      <trkpt lat="48.72854" lon="2.09419">
        <ele>128.986</ele>
        <time>2013-08-02T14:34:22Z</time>
      </trkpt>
      <trkpt lat="48.7285" lon="2.09417">
        <ele>129.689</ele>
        <time>2013-08-02T14:34:27Z</time>
      </trkpt>
      <trkpt lat="48.72845" lon="2.09414">
        <ele>130.548</ele>
        <time>2013-08-02T14:34:32Z</time>
      </trkpt>
      <trkpt lat="48.72842" lon="2.09412">
        <ele>130.919</ele>
        <time>2013-08-02T14:34:35Z</time>
      </trkpt>
      <trkpt lat="48.72831" lon="2.09407">
        <ele>131.57</ele>
        <time>2013-08-02T14:34:43Z</time>
      </trkpt>
      <trkpt lat="48.7282" lon="2.0941">
        <ele>132.589</ele>
        <time>2013-08-02T14:34:49Z</time>
      </trkpt>
      <trkpt lat="48.72816" lon="2.09414">
        <ele>133.043</ele>
        <time>2013-08-02T14:34:53Z</time>
      </trkpt>
      <trkpt lat="48.72813" lon="2.09419">
        <ele>133.47</ele>
        <time>2013-08-02T14:34:56Z</time>
      </trkpt>
      <trkpt lat="48.72808" lon="2.09429">
        <ele>134.398</ele>
        <time>2013-08-02T14:35:02Z</time>
      </trkpt>
      <trkpt lat="48.72804" lon="2.09441">
        <ele>135.303</ele>
        <time>2013-08-02T14:35:08Z</time>
      </trkpt>
      <trkpt lat="48.728" lon="2.09452">
        <ele>136.17</ele>
        <time>2013-08-02T14:35:14Z</time>
      </trkpt>
      <trkpt lat="48.72795" lon="2.09469">
        <ele>136.221</ele>
        <time>2013-08-02T14:35:20Z</time>
      </trkpt>
      <trkpt lat="48.72793" lon="2.09472">
        <ele>136.167</ele>
        <time>2013-08-02T14:35:21Z</time>
      </trkpt>
      <trkpt lat="48.72787" lon="2.09495">
        <ele>135.289</ele>
        <time>2013-08-02T14:35:27Z</time>
      </trkpt>
      <trkpt lat="48.72786" lon="2.09503">
        <ele>134.752</ele>
        <time>2013-08-02T14:35:29Z</time>
      </trkpt>
      <trkpt lat="48.72783" lon="2.09534">
        <ele>132.898</ele>
        <time>2013-08-02T14:35:34Z</time>
      </trkpt>
      <trkpt lat="48.72774" lon="2.09577">
        <ele>130.057</ele>
        <time>2013-08-02T14:35:39Z</time>
      </trkpt>
      <trkpt lat="48.72767" lon="2.09603">
        <ele>129.154</ele>
        <time>2013-08-02T14:35:42Z</time>
      </trkpt>
      <trkpt lat="48.72755" lon="2.09626">
        <ele>128.495</ele>
        <time>2013-08-02T14:35:46Z</time>
      </trkpt>
      <trkpt lat="48.72749" lon="2.09631">
        <ele>128.31</ele>
        <time>2013-08-02T14:35:48Z</time>
      </trkpt>
      <trkpt lat="48.7272" lon="2.09647">
        <ele>129.009</ele>
        <time>2013-08-02T14:35:57Z</time>
      </trkpt>
      <trkpt lat="48.72708" lon="2.09646">
        <ele>129.757</ele>
        <time>2013-08-02T14:36:04Z</time>
      </trkpt>
      <trkpt lat="48.72701" lon="2.09643">
        <ele>130.198</ele>
        <time>2013-08-02T14:36:09Z</time>
      </trkpt>
      <trkpt lat="48.7269" lon="2.09639">
        <ele>130.846</ele>
        <time>2013-08-02T14:36:15Z</time>
      </trkpt>
      <trkpt lat="48.72682" lon="2.09633">
        <ele>131.648</ele>
        <time>2013-08-02T14:36:21Z</time>
      </trkpt>
      <trkpt lat="48.7267" lon="2.09627">
        <ele>132.502</ele>
        <time>2013-08-02T14:36:28Z</time>
      </trkpt>
      <trkpt lat="48.72661" lon="2.09623">
        <ele>132.992</ele>
        <time>2013-08-02T14:36:34Z</time>
      </trkpt>
      <trkpt lat="48.72649" lon="2.09618">
        <ele>133.721</ele>
        <time>2013-08-02T14:36:41Z</time>
      </trkpt>
      <trkpt lat="48.72648" lon="2.09617">
        <ele>133.868</ele>
        <time>2013-08-02T14:36:42Z</time>
      </trkpt>
      <trkpt lat="48.72633" lon="2.09609">
        <ele>135.374</ele>
        <time>2013-08-02T14:36:51Z</time>
      </trkpt>
      <trkpt lat="48.72622" lon="2.09604">
        <ele>136.18</ele>
        <time>2013-08-02T14:36:59Z</time>
      </trkpt>
      <trkpt lat="48.72607" lon="2.09595">
        <ele>137.29</ele>
        <time>2013-08-02T14:37:08Z</time>
      </trkpt>
      <trkpt lat="48.72599" lon="2.09589">
        <ele>138.053</ele>
        <time>2013-08-02T14:37:15Z</time>
      </trkpt>
      <trkpt lat="48.72587" lon="2.09581">
        <ele>139.054</ele>
        <time>2013-08-02T14:37:23Z</time>
      </trkpt>
      <trkpt lat="48.72581" lon="2.09575">
        <ele>139.802</ele>
        <time>2013-08-02T14:37:28Z</time>
      </trkpt>
      <trkpt lat="48.7258" lon="2.0957">
        <ele>140.327</ele>
        <time>2013-08-02T14:37:31Z</time>
      </trkpt>
      <trkpt lat="48.72577" lon="2.0956">
        <ele>140.987</ele>
        <time>2013-08-02T14:37:36Z</time>
      </trkpt>
      <trkpt lat="48.72576" lon="2.09553">
        <ele>141.249</ele>
        <time>2013-08-02T14:37:39Z</time>
      </trkpt>
      <trkpt lat="48.72581" lon="2.09537">
        <ele>142.02</ele>
        <time>2013-08-02T14:37:46Z</time>
      </trkpt>
      <trkpt lat="48.72581" lon="2.09536">
        <ele>142.137</ele>
        <time>2013-08-02T14:37:47Z</time>
      </trkpt>
      <trkpt lat="48.7259" lon="2.09528">
        <ele>142.745</ele>
        <time>2013-08-02T14:37:54Z</time>
      </trkpt>
      <trkpt lat="48.72592" lon="2.09527">
        <ele>142.969</ele>
        <time>2013-08-02T14:37:56Z</time>
      </trkpt>
      <trkpt lat="48.72607" lon="2.09531">
        <ele>144.056</ele>
        <time>2013-08-02T14:38:05Z</time>
      </trkpt>
      <trkpt lat="48.7262" lon="2.09535">
        <ele>144.879</ele>
        <time>2013-08-02T14:38:13Z</time>
      </trkpt>
      <trkpt lat="48.72629" lon="2.09531">
        <ele>146.393</ele>
        <time>2013-08-02T14:38:20Z</time>
      </trkpt>
      <trkpt lat="48.72631" lon="2.09529">
        <ele>146.905</ele>
        <time>2013-08-02T14:38:22Z</time>
      </trkpt>
      <trkpt lat="48.72636" lon="2.09523">
        <ele>147.92</ele>
        <time>2013-08-02T14:38:27Z</time>
      </trkpt>
      <trkpt lat="48.72637" lon="2.09521">
        <ele>148.086</ele>
        <time>2013-08-02T14:38:29Z</time>
      </trkpt>
      <trkpt lat="48.72637" lon="2.09512">
        <ele>148.329</ele>
        <time>2013-08-02T14:38:34Z</time>
      </trkpt>
      <trkpt lat="48.72637" lon="2.09499">
        <ele>148.341</ele>
        <time>2013-08-02T14:38:38Z</time>
      </trkpt>
      <trkpt lat="48.72644" lon="2.09487">
        <ele>148.843</ele>
        <time>2013-08-02T14:38:44Z</time>
      </trkpt>
      <trkpt lat="48.72647" lon="2.09475">
        <ele>149.784</ele>
        <time>2013-08-02T14:38:53Z</time>
      </trkpt>
      <trkpt lat="48.7265" lon="2.09463">
        <ele>151.255</ele>
        <time>2013-08-02T14:39:02Z</time>
      </trkpt>
      <trkpt lat="48.72652" lon="2.09458">
        <ele>152.082</ele>
        <time>2013-08-02T14:39:09Z</time>
      </trkpt>
      <trkpt lat="48.72654" lon="2.09455">
        <ele>152.489</ele>
        <time>2013-08-02T14:39:12Z</time>
      </trkpt>
      <trkpt lat="48.7266" lon="2.09443">
        <ele>153.521</ele>
        <time>2013-08-02T14:39:21Z</time>
      </trkpt>
      <trkpt lat="48.72665" lon="2.09432">
        <ele>154.205</ele>
        <time>2013-08-02T14:39:29Z</time>
      </trkpt>
      <trkpt lat="48.72667" lon="2.09429">
        <ele>154.517</ele>
        <time>2013-08-02T14:39:32Z</time>
      </trkpt>
      <trkpt lat="48.72673" lon="2.09424">
        <ele>155.26</ele>
        <time>2013-08-02T14:39:42Z</time>
      </trkpt>
      <trkpt lat="48.72677" lon="2.09421">
        <ele>155.783</ele>
        <time>2013-08-02T14:39:48Z</time>
      </trkpt>
      <trkpt lat="48.72684" lon="2.09417">
        <ele>156.122</ele>
        <time>2013-08-02T14:39:53Z</time>
      </trkpt>
      <trkpt lat="48.72688" lon="2.09413">
        <ele>156.323</ele>
        <time>2013-08-02T14:40:01Z</time>
      </trkpt>
      <trkpt lat="48.7269" lon="2.09405">
        <ele>156.34</ele>
        <time>2013-08-02T14:40:11Z</time>
      </trkpt>
      <trkpt lat="48.72694" lon="2.09393">
        <ele>156.817</ele>
        <time>2013-08-02T14:40:19Z</time>
      </trkpt>
      <trkpt lat="48.72696" lon="2.09386">
        <ele>157.212</ele>
        <time>2013-08-02T14:40:24Z</time>
      </trkpt>
      <trkpt lat="48.72698" lon="2.09371">
        <ele>157.948</ele>
        <time>2013-08-02T14:40:30Z</time>
      </trkpt>
      <trkpt lat="48.72699" lon="2.09364">
        <ele>158.439</ele>
        <time>2013-08-02T14:40:33Z</time>
      </trkpt>
      <trkpt lat="48.72694" lon="2.09349">
        <ele>159.74</ele>
        <time>2013-08-02T14:40:40Z</time>
      </trkpt>
      <trkpt lat="48.72685" lon="2.09335">
        <ele>160.22</ele>
        <time>2013-08-02T14:40:47Z</time>
      </trkpt>
      <trkpt lat="48.72672" lon="2.09325">
        <ele>161.116</ele>
        <time>2013-08-02T14:40:55Z</time>
      </trkpt>
      <trkpt lat="48.72671" lon="2.09324">
        <ele>161.238</ele>
        <time>2013-08-02T14:40:56Z</time>
      </trkpt>
      <trkpt lat="48.72656" lon="2.09309">
        <ele>162.314</ele>
        <time>2013-08-02T14:41:06Z</time>
      </trkpt>
      <trkpt lat="48.72642" lon="2.09293">
        <ele>163.134</ele>
        <time>2013-08-02T14:41:15Z</time>
      </trkpt>
      <trkpt lat="48.72625" lon="2.09275">
        <ele>163.506</ele>
        <time>2013-08-02T14:41:25Z</time>
      </trkpt>
      <trkpt lat="48.72608" lon="2.09259">
        <ele>163.872</ele>
        <time>2013-08-02T14:41:34Z</time>
      </trkpt>
      <trkpt lat="48.72592" lon="2.0924">
        <ele>164.638</ele>
        <time>2013-08-02T14:41:42Z</time>
      </trkpt>
      <trkpt lat="48.72579" lon="2.09214">
        <ele>164.964</ele>
        <time>2013-08-02T14:41:50Z</time>
      </trkpt>
      <trkpt lat="48.72568" lon="2.09188">
        <ele>165.151</ele>
        <time>2013-08-02T14:41:57Z</time>
      </trkpt>
      <trkpt lat="48.72553" lon="2.09157">
        <ele>165.949</ele>
        <time>2013-08-02T14:42:06Z</time>
      </trkpt>
      <trkpt lat="48.7254" lon="2.09127">
        <ele>166.177</ele>
        <time>2013-08-02T14:42:14Z</time>
      </trkpt>
      <trkpt lat="48.72528" lon="2.09108">
        <ele>166.383</ele>
        <time>2013-08-02T14:42:20Z</time>
      </trkpt>
      <trkpt lat="48.72513" lon="2.09109">
        <ele>166.317</ele>
        <time>2013-08-02T14:42:25Z</time>
      </trkpt>
      <trkpt lat="48.72483" lon="2.09124">
        <ele>166.044</ele>
        <time>2013-08-02T14:42:34Z</time>
      </trkpt>
      <trkpt lat="48.72455" lon="2.09138">
        <ele>165.536</ele>
        <time>2013-08-02T14:42:43Z</time>
      </trkpt>
      <trkpt lat="48.72435" lon="2.09147">
        <ele>165.956</ele>
        <time>2013-08-02T14:42:51Z</time>
      </trkpt>
      <trkpt lat="48.72433" lon="2.09148">
        <ele>165.986</ele>
        <time>2013-08-02T14:42:52Z</time>
      </trkpt>
      <trkpt lat="48.72432" lon="2.09149">
        <ele>166.156</ele>
        <time>2013-08-02T14:43:13Z</time>
      </trkpt>
      <trkpt lat="48.72426" lon="2.09152">
        <ele>166.218</ele>
        <time>2013-08-02T14:43:33Z</time>
      </trkpt>
      <trkpt lat="48.72405" lon="2.09162">
        <ele>166.304</ele>
        <time>2013-08-02T14:43:40Z</time>
      </trkpt>
      <trkpt lat="48.72379" lon="2.09173">
        <ele>166.484</ele>
        <time>2013-08-02T14:43:48Z</time>
      </trkpt>
      <trkpt lat="48.72357" lon="2.09183">
        <ele>166.618</ele>
        <time>2013-08-02T14:43:55Z</time>
      </trkpt>
      <trkpt lat="48.72338" lon="2.09224">
        <ele>166.522</ele>
        <time>2013-08-02T14:44:04Z</time>
      </trkpt>
      <trkpt lat="48.72321" lon="2.09261">
        <ele>166.873</ele>
        <time>2013-08-02T14:44:11Z</time>
      </trkpt>
      <trkpt lat="48.72293" lon="2.09318">
        <ele>166.421</ele>
        <time>2013-08-02T14:44:21Z</time>
      </trkpt>
      <trkpt lat="48.72286" lon="2.09336">
        <ele>166.259</ele>
        <time>2013-08-02T14:44:24Z</time>
      </trkpt>
      <trkpt lat="48.72265" lon="2.09385">
        <ele>166.156</ele>
        <time>2013-08-02T14:44:32Z</time>
      </trkpt>
      <trkpt lat="48.72239" lon="2.09442">
        <ele>166.543</ele>
        <time>2013-08-02T14:44:41Z</time>
      </trkpt>
      <trkpt lat="48.72218" lon="2.09492">
        <ele>166.442</ele>
        <time>2013-08-02T14:44:49Z</time>
      </trkpt>
      <trkpt lat="48.72213" lon="2.09503">
        <ele>166.44</ele>
        <time>2013-08-02T14:44:51Z</time>
      </trkpt>
      <trkpt lat="48.72216" lon="2.09528">
        <ele>166.505</ele>
        <time>2013-08-02T14:44:55Z</time>
      </trkpt>
      <trkpt lat="48.7222" lon="2.09533">
        <ele>166.43</ele>
        <time>2013-08-02T14:44:56Z</time>
      </trkpt>
      <trkpt lat="48.7226" lon="2.09574">
        <ele>165.711</ele>
        <time>2013-08-02T14:45:05Z</time>
      </trkpt>
      <trkpt lat="48.72289" lon="2.09603">
        <ele>165.124</ele>
        <time>2013-08-02T14:45:11Z</time>
      </trkpt>
      <trkpt lat="48.72335" lon="2.09651">
        <ele>164.352</ele>
        <time>2013-08-02T14:45:20Z</time>
      </trkpt>
      <trkpt lat="48.72363" lon="2.09679">
        <ele>163.641</ele>
        <time>2013-08-02T14:45:25Z</time>
      </trkpt>
      <trkpt lat="48.72374" lon="2.0969">
        <ele>163.188</ele>
        <time>2013-08-02T14:45:27Z</time>
      </trkpt>
      <trkpt lat="48.72388" lon="2.09724">
        <ele>162.635</ele>
        <time>2013-08-02T14:45:31Z</time>
      </trkpt>
      <trkpt lat="48.72383" lon="2.09741">
        <ele>162.616</ele>
        <time>2013-08-02T14:45:33Z</time>
      </trkpt>
      <trkpt lat="48.7237" lon="2.09813">
        <ele>162.979</ele>
        <time>2013-08-02T14:45:42Z</time>
      </trkpt>
      <trkpt lat="48.72365" lon="2.0986">
        <ele>163.163</ele>
        <time>2013-08-02T14:45:48Z</time>
      </trkpt>
      <trkpt lat="48.72363" lon="2.0988">
        <ele>163.354</ele>
        <time>2013-08-02T14:45:51Z</time>
      </trkpt>
      <trkpt lat="48.72362" lon="2.099">
        <ele>163.6</ele>
        <time>2013-08-02T14:45:56Z</time>
      </trkpt>
      <trkpt lat="48.72367" lon="2.099">
        <ele>163.822</ele>
        <time>2013-08-02T14:46:11Z</time>
      </trkpt>
      <trkpt lat="48.72368" lon="2.09898">
        <ele>163.91</ele>
        <time>2013-08-02T14:46:17Z</time>
      </trkpt>
    </trkseg>
  </trk>
</gpx>